
Distance (Route):
Temperature : -21.0°C
Humidity : 40.5%
Pressure : 0hPa| Receiver | Date | Latitude | Longitude | Direction | Speed | Altitude | Climb | Temperature | Humidity | Pressure | Voltage | Killtimer | Uptime | BKT | XDATA |
|---|---|---|---|---|---|---|---|---|---|---|---|---|---|---|---|
| LZ4TU-5 | 2026-09-04 06:52:27 | 44.07005 | 20.58109 | 182° | 104km/h | 7584m | -19.3m/s | -21.0°C | 40.5% | 0hPa | 5.4V | 00:00:00 | 00:00:00 | 00:00:00 | |
| LZ4TU-5 | 2026-09-04 06:52:22 | 44.07137 | 20.58110 | 179° | 104km/h | 7683m | -19.5m/s | -21.9°C | 40.7% | 0hPa | 5.4V | 00:00:00 | 00:00:00 | 00:00:00 | |
| LZ4TU-5 | 2026-09-04 06:50:47 | 44.10003 | 20.57837 | 178° | 130km/h | 9570m | -20.9m/s | -37.0°C | 46.3% | 0hPa | 5.4V | 00:00:00 | 00:00:00 | 00:00:00 | |
| LZ4TU-5 | 2026-09-04 06:50:42 | 44.10168 | 20.57823 | 178° | 131km/h | 9669m | -20.7m/s | -37.9°C | 48.3% | 0hPa | 5.4V | 00:00:00 | 00:00:00 | 00:00:00 | |
| LZ4TU-5 | 2026-09-04 06:49:06 | 44.13438 | 20.57930 | 189° | 144km/h | 11869m | -25.2m/s | -57.7°C | 31.0% | 0hPa | 5.4V | 00:00:00 | 00:00:00 | 00:00:00 | |
| LZ4TU-5 | 2026-09-04 06:49:02 | 44.13583 | 20.57956 | 189° | 144km/h | 11967m | -25.3m/s | -58.5°C | 27.9% | 0hPa | 5.4V | 00:00:00 | 00:00:00 | 00:00:00 | |
| LZ4TU-5 | 2026-09-04 06:47:44 | 44.15854 | 20.57801 | 168° | 57km/h | 14141m | -30.2m/s | -53.9°C | 1.5% | 0hPa | 5.4V | 00:00:00 | 00:00:00 | 00:00:00 | |
| LZ4TU-5 | 2026-09-04 06:47:40 | 44.15906 | 20.57784 | 165° | 49km/h | 14264m | -30.4m/s | -54.6°C | 1.6% | 0hPa | 5.4V | 00:00:00 | 00:00:00 | 00:00:00 | |
| LZ4TU-5 | 2026-09-04 06:47:35 | 44.15964 | 20.57755 | 154° | 49km/h | 14408m | -30.9m/s | -55.1°C | 1.6% | 0hPa | 5.4V | 00:00:00 | 00:00:00 | 00:00:00 | |
| LZ4TU-5 | 2026-09-04 06:44:17 | 44.16787 | 20.56821 | 124° | 5km/h | 22525m | -56.6m/s | -52.9°C | 0.9% | 0hPa | 5.4V | 00:00:00 | 00:00:00 | 00:00:00 | |
| LZ4TU-5 | 2026-09-04 06:44:12 | 44.16791 | 20.56816 | 0° | 0km/h | 22814m | -56.8m/s | -52.8°C | 1.1% | 0hPa | 5.4V | 00:00:00 | 00:00:00 | 00:00:00 | |
| LZ4TU-5 | 2026-09-04 06:42:54 | 44.16846 | 20.56863 | 313° | 5km/h | 28159m | -84.2m/s | -44.4°C | 2.7% | 0hPa | 5.4V | 00:00:00 | 00:00:00 | 00:00:00 | |
| LZ4TU-5 | 2026-09-04 06:42:49 | 44.16841 | 20.56869 | 332° | 5km/h | 28583m | -86.3m/s | -43.4°C | 2.7% | 0hPa | 5.4V | 00:00:00 | 00:00:00 | 00:00:00 | |
| PETON7-10 | 2026-09-04 06:42:02 | 44.16845 | 20.56838 | 170° | 13km/h | 32044m | 8.4m/s | -38.4°C | 0% | 0hPa | 5.4V | 00:00:00 | 00:00:00 | 00:00:00 | |
| PETON7-10 | 2026-09-04 06:41:35 | 44.16898 | 20.56779 | 146° | 20km/h | 31846m | 6.2m/s | -39.0°C | 0% | 0hPa | 5.4V | 00:00:00 | 00:00:00 | 00:00:00 | |
| LZ4TU-5 | 2026-09-04 06:41:29 | 44.16912 | 20.56732 | 69° | 20km/h | 31805m | 10.1m/s | -39.1°C | 2.9% | 0hPa | 5.4V | 00:00:00 | 00:00:00 | 00:00:00 | |
| LZ4TU-5 | 2026-09-04 06:41:24 | 44.16895 | 20.56715 | 131° | 16km/h | 31765m | 9.7m/s | -39.3°C | 2.9% | 0hPa | 5.4V | 00:00:00 | 00:00:00 | 00:00:00 | |
| PETON7-10 | 2026-09-04 06:41:20 | 44.16913 | 20.56679 | 110° | 27km/h | 31738m | 4.7m/s | -39.4°C | 0% | 0hPa | 5.4V | 00:00:00 | 00:00:00 | 00:00:00 | |
| LZ4TU-5 | 2026-09-04 06:41:19 | 44.16916 | 20.56666 | 109° | 38km/h | 31729m | 8.8m/s | -39.5°C | 3.0% | 0hPa | 5.5V | 00:00:00 | 00:00:00 | 00:00:00 | |
| LZ4TU-5 | 2026-09-04 06:39:58 | 44.16852 | 20.56577 | 44° | 20km/h | 31147m | 5.3m/s | -40.9°C | 2.9% | 0hPa | 5.5V | 00:00:00 | 00:00:00 | 00:00:00 | |
| LZ4TU-5 | 2026-09-04 06:38:36 | 44.16716 | 20.56736 | 0° | 0km/h | 30559m | 6.8m/s | -42.1°C | 3.0% | 0hPa | 5.5V | 00:00:00 | 00:00:00 | 00:00:00 | |
| LZ4TU-5 | 2026-09-04 06:38:31 | 44.16712 | 20.56753 | 322° | 11km/h | 30525m | 6.2m/s | -42.1°C | 3.0% | 0hPa | 5.5V | 00:00:00 | 00:00:00 | 00:00:00 | |
| LZ4TU-5 | 2026-09-04 06:38:26 | 44.16705 | 20.56734 | 107° | 22km/h | 30489m | 8.9m/s | -42.0°C | 2.9% | 0hPa | 5.5V | 00:00:00 | 00:00:00 | 00:00:00 | |
| LZ4TU-5 | 2026-09-04 06:37:07 | 44.16490 | 20.56723 | 30° | 35km/h | 29931m | 6.8m/s | -43.1°C | 2.9% | 0hPa | 5.5V | 00:00:00 | 00:00:00 | 00:00:00 | |
| LZ4TU-5 | 2026-09-04 06:37:02 | 44.16454 | 20.56729 | 306° | 40km/h | 29900m | 6.6m/s | -43.1°C | 2.9% | 0hPa | 5.5V | 00:00:00 | 00:00:00 | 00:00:00 | |
| OM5KV | 2026-09-04 06:35:52 | 44.16252 | 20.57014 | 277° | 26km/h | 29413m | 6.5m/s | -43.4°C | 2.6% | 0hPa | 5.5V | 00:00:00 | 00:00:00 | 00:00:00 | |
| OM5KV | 2026-09-04 06:35:46 | 44.16259 | 20.57011 | 25° | 16km/h | 29370m | 4.5m/s | -43.3°C | 2.5% | 0hPa | 5.5V | 00:00:00 | 00:00:00 | 00:00:00 | |
| LZ4TU-5 | 2026-09-04 06:35:42 | 44.16249 | 20.57035 | 263° | 37km/h | 29343m | 6.5m/s | -43.3°C | 2.5% | 0hPa | 5.5V | 00:00:00 | 00:00:00 | 00:00:00 | |
| LZ4TU-5 | 2026-09-04 06:35:37 | 44.16253 | 20.57058 | 82° | 20km/h | 29308m | 7.9m/s | -43.5°C | 2.5% | 0hPa | 5.5V | 00:00:00 | 00:00:00 | 00:00:00 | |
| OM5KV | 2026-09-04 06:35:36 | 44.16252 | 20.57051 | 68° | 16km/h | 29300m | 7.8m/s | -43.5°C | 2.6% | 0hPa | 5.5V | 00:00:00 | 00:00:00 | 00:00:00 | |
| OM5KV | 2026-09-04 06:35:24 | 44.16253 | 20.57082 | 60° | 15km/h | 29213m | 9.1m/s | -44.4°C | 2.7% | 0hPa | 5.5V | 00:00:00 | 00:00:00 | 00:00:00 | |
| OM5KV | 2026-09-04 06:35:14 | 44.16244 | 20.57100 | 277° | 13km/h | 29143m | 5.4m/s | -44.6°C | 2.6% | 0hPa | 5.5V | 00:00:00 | 00:00:00 | 00:00:00 | |
| OM5KV | 2026-09-04 06:35:07 | 44.16228 | 20.57116 | 214° | 9km/h | 29090m | 7.5m/s | -44.5°C | 2.6% | 0hPa | 5.5V | 00:00:00 | 00:00:00 | 00:00:00 | |
| OM5KV | 2026-09-04 06:35:01 | 44.16231 | 20.57154 | 299° | 18km/h | 29052m | 4.0m/s | -44.4°C | 2.5% | 0hPa | 5.5V | 00:00:00 | 00:00:00 | 00:00:00 | |
| OM5KV | 2026-09-04 06:34:55 | 44.16241 | 20.57151 | 233° | 18km/h | 29010m | 8.2m/s | -44.4°C | 2.4% | 0hPa | 5.5V | 00:00:00 | 00:00:00 | 00:00:00 | |
| OM5KV | 2026-09-04 06:34:54 | 44.16242 | 20.57158 | 272° | 26km/h | 29000m | 9.2m/s | -44.4°C | 2.4% | 0hPa | 5.5V | 00:00:00 | 00:00:00 | 00:00:00 | |
| OM5KV | 2026-09-04 06:34:49 | 44.16235 | 20.57203 | 208° | 13km/h | 28965m | 9.3m/s | -44.4°C | 2.4% | 0hPa | 5.5V | 00:00:00 | 00:00:00 | 00:00:00 | |
| OM5KV | 2026-09-04 06:34:48 | 44.16240 | 20.57202 | 162° | 24km/h | 28958m | 7.9m/s | -44.5°C | 2.4% | 0hPa | 5.5V | 00:00:00 | 00:00:00 | 00:00:00 | |
| OM5KV | 2026-09-04 06:34:46 | 44.16252 | 20.57193 | 145° | 22km/h | 28943m | 7.7m/s | -44.6°C | 2.4% | 0hPa | 5.5V | 00:00:00 | 00:00:00 | 00:00:00 | |
| OM5KV | 2026-09-04 06:34:39 | 44.16253 | 20.57242 | 263° | 29km/h | 28892m | 6.7m/s | -44.7°C | 2.5% | 0hPa | 5.5V | 00:00:00 | 00:00:00 | 00:00:00 | |
| OM5KV | 2026-09-04 06:34:38 | 44.16254 | 20.57249 | 251° | 15km/h | 28885m | 7.3m/s | -44.7°C | 2.5% | 0hPa | 5.5V | 00:00:00 | 00:00:00 | 00:00:00 | |
| OM5KV | 2026-09-04 06:34:35 | 44.16259 | 20.57243 | 120° | 16km/h | 28862m | 8.4m/s | -44.7°C | 2.5% | 0hPa | 5.5V | 00:00:00 | 00:00:00 | 00:00:00 | |
| OM5KV | 2026-09-04 06:34:28 | 44.16274 | 20.57267 | 257° | 27km/h | 28810m | 8.1m/s | -45.2°C | 2.5% | 0hPa | 5.5V | 00:00:00 | 00:00:00 | 00:00:00 | |
| OM5KV | 2026-09-04 06:34:22 | 44.16272 | 20.57278 | 119° | 16km/h | 28765m | 5.4m/s | -45.4°C | 2.6% | 0hPa | 5.5V | 00:00:00 | 00:00:00 | 00:00:00 | |
| OM5KV | 2026-09-04 06:34:20 | 44.16273 | 20.57273 | 327° | 5km/h | 28750m | 8.3m/s | -45.7°C | 2.7% | 0hPa | 5.5V | 00:00:00 | 00:00:00 | 00:00:00 | |
| LZ4TU-5 | 2026-09-04 06:34:16 | 44.16269 | 20.57302 | 247° | 26km/h | 28719m | 7.6m/s | -45.5°C | 2.6% | 0hPa | 5.5V | 00:00:00 | 00:00:00 | 00:00:00 | |
| OM5KV | 2026-09-04 06:34:15 | 44.16272 | 20.57309 | 219° | 22km/h | 28713m | 6.3m/s | -45.5°C | 2.6% | 0hPa | 5.5V | 00:00:00 | 00:00:00 | 00:00:00 | |
| OM5KV | 2026-09-04 06:34:09 | 44.16275 | 20.57303 | 90° | 9km/h | 28668m | 7.4m/s | -45.6°C | 2.6% | 0hPa | 5.5V | 00:00:00 | 00:00:00 | 00:00:00 | |
| OM5KV | 2026-09-04 06:34:04 | 44.16278 | 20.57315 | 237° | 13km/h | 28637m | 3.8m/s | -45.6°C | 2.5% | 0hPa | 5.5V | 00:00:00 | 00:00:00 | 00:00:00 | |
| OM5KV | 2026-09-04 06:33:56 | 44.16277 | 20.57301 | 292° | 13km/h | 28573m | 9.1m/s | -45.2°C | 2.3% | 0hPa | 5.5V | 00:00:00 | 00:00:00 | 00:00:00 | |
| OM5KV | 2026-09-04 06:33:51 | 44.16292 | 20.57314 | 128° | 26km/h | 28542m | 7.0m/s | -45.2°C | 2.3% | 0hPa | 5.5V | 00:00:00 | 00:00:00 | 00:00:00 | |
| OM5KV | 2026-09-04 06:33:50 | 44.16295 | 20.57306 | 105° | 27km/h | 28532m | 10.7m/s | -45.0°C | 2.3% | 0hPa | 5.5V | 00:00:00 | 00:00:00 | 00:00:00 | |
| OM5KV | 2026-09-04 06:33:45 | 44.16277 | 20.57301 | 272° | 24km/h | 28496m | 8.1m/s | -45.1°C | 2.3% | 0hPa | 5.5V | 00:00:00 | 00:00:00 | 00:00:00 | |
| OM5KV | 2026-09-04 06:33:39 | 44.16295 | 20.57307 | 75° | 22km/h | 28458m | 6.9m/s | -45.5°C | 2.4% | 0hPa | 5.5V | 00:00:00 | 00:00:00 | 00:00:00 | |
| OM5KV | 2026-09-04 06:33:38 | 44.16292 | 20.57301 | 36° | 16km/h | 28450m | 7.8m/s | -45.6°C | 2.4% | 0hPa | 5.5V | 00:00:00 | 00:00:00 | 00:00:00 | |
| OM5KV | 2026-09-04 06:33:34 | 44.16274 | 20.57325 | 277° | 35km/h | 28420m | 7.0m/s | -45.6°C | 2.5% | 0hPa | 5.5V | 00:00:00 | 00:00:00 | 00:00:00 | |
| OM5KV | 2026-09-04 06:33:28 | 44.16286 | 20.57348 | 71° | 24km/h | 28372m | 3.4m/s | -46.0°C | 2.5% | 0hPa | 5.5V | 00:00:00 | 00:00:00 | 00:00:00 | |
| OM5KV | 2026-09-04 06:33:26 | 44.16283 | 20.57341 | 44° | 16km/h | 28370m | 1.8m/s | -46.1°C | 2.5% | 0hPa | 5.5V | 00:00:00 | 00:00:00 | 00:00:00 | |
| OM5KV | 2026-09-04 06:33:22 | 44.16282 | 20.57374 | 251° | 55km/h | 28334m | 8.6m/s | -46.1°C | 2.6% | 0hPa | 5.5V | 00:00:00 | 00:00:00 | 00:00:00 | |
| OM5KV | 2026-09-04 06:33:20 | 44.16293 | 20.57403 | 231° | 37km/h | 28324m | 3.2m/s | -46.1°C | 2.5% | 0hPa | 5.5V | 00:00:00 | 00:00:00 | 00:00:00 | |
| OM5KV | 2026-09-04 06:33:13 | 44.16301 | 20.57412 | 230° | 15km/h | 28276m | 5.6m/s | -46.3°C | 2.6% | 0hPa | 5.5V | 00:00:00 | 00:00:00 | 00:00:00 | |
| OM5KV | 2026-09-04 06:33:08 | 44.16315 | 20.57460 | 237° | 33km/h | 28240m | 7.2m/s | -46.6°C | 2.7% | 0hPa | 5.5V | 00:00:00 | 00:00:00 | 00:00:00 | |
| OM5KV | 2026-09-04 06:33:07 | 44.16320 | 20.57467 | 220° | 24km/h | 28234m | 6.0m/s | -46.6°C | 2.7% | 0hPa | 5.5V | 00:00:00 | 00:00:00 | 00:00:00 | |
| OM5KV | 2026-09-04 06:33:02 | 44.16319 | 20.57466 | 7° | 13km/h | 28203m | 4.9m/s | -46.7°C | 2.7% | 0hPa | 5.5V | 00:00:00 | 00:00:00 | 00:00:00 | |
| OM5KV | 2026-09-04 06:32:58 | 44.16328 | 20.57492 | 233° | 37km/h | 28172m | 7.7m/s | -46.6°C | 2.7% | 0hPa | 5.5V | 00:00:00 | 00:00:00 | 00:00:00 | |
| LZ4TU-5 | 2026-09-04 06:32:57 | 44.16334 | 20.57502 | 230° | 33km/h | 28166m | 5.8m/s | -46.6°C | 2.7% | 0hPa | 5.5V | 00:00:00 | 00:00:00 | 00:00:00 | |
| OM5KV | 2026-09-04 06:32:56 | 44.16339 | 20.57510 | 232° | 27km/h | 28160m | 6.2m/s | -46.6°C | 2.8% | 0hPa | 5.5V | 00:00:00 | 00:00:00 | 00:00:00 | |
| LZ4TU-5 | 2026-09-04 06:32:52 | 44.16344 | 20.57523 | 1° | 5km/h | 28134m | 5.4m/s | -46.8°C | 2.7% | 0hPa | 5.5V | 00:00:00 | 00:00:00 | 00:00:00 | |
| OM5KV | 2026-09-04 06:32:40 | 44.16356 | 20.57556 | 359° | 20km/h | 28052m | 7.7m/s | -46.9°C | 2.7% | 0hPa | 5.5V | 00:00:00 | 00:00:00 | 00:00:00 | |
| OM5KV | 2026-09-04 06:32:39 | 44.16351 | 20.57556 | 353° | 18km/h | 28047m | 5.1m/s | -46.9°C | 2.7% | 0hPa | 5.5V | 00:00:00 | 00:00:00 | 00:00:00 | |
| OM5KV | 2026-09-04 06:32:34 | 44.16354 | 20.57568 | 227° | 20km/h | 28017m | 5.3m/s | -46.8°C | 2.7% | 0hPa | 5.5V | 00:00:00 | 00:00:00 | 00:00:00 | |
| OM5KV | 2026-09-04 06:32:28 | 44.16332 | 20.57591 | 332° | 22km/h | 27976m | 5.2m/s | -47.0°C | 2.7% | 0hPa | 5.5V | 00:00:00 | 00:00:00 | 00:00:00 | |
| OM5KV | 2026-09-04 06:32:27 | 44.16328 | 20.57594 | 334° | 16km/h | 27968m | 8.3m/s | -47.1°C | 2.7% | 0hPa | 5.5V | 00:00:00 | 00:00:00 | 00:00:00 | |
| OM5KV | 2026-09-04 06:32:20 | 44.16327 | 20.57632 | 309° | 35km/h | 27925m | 5.5m/s | -47.0°C | 2.8% | 0hPa | 5.5V | 00:00:00 | 00:00:00 | 00:00:00 | |
| OM5KV | 2026-09-04 06:32:18 | 44.16314 | 20.57645 | 349° | 29km/h | 27911m | 7.4m/s | -47.1°C | 2.7% | 0hPa | 5.5V | 00:00:00 | 00:00:00 | 00:00:00 | |
| OM5KV | 2026-09-04 06:32:17 | 44.16307 | 20.57645 | 10° | 24km/h | 27904m | 6.9m/s | -47.1°C | 2.8% | 0hPa | 5.5V | 00:00:00 | 00:00:00 | 00:00:00 | |
| OM5KV | 2026-09-04 06:32:14 | 44.16299 | 20.57650 | 278° | 22km/h | 27884m | 7.3m/s | -47.3°C | 2.8% | 0hPa | 5.5V | 00:00:00 | 00:00:00 | 00:00:00 | |
| OM5KV | 2026-09-04 06:32:12 | 44.16298 | 20.57669 | 272° | 33km/h | 27870m | 7.6m/s | -47.3°C | 2.8% | 0hPa | 5.5V | 00:00:00 | 00:00:00 | 00:00:00 | |
| OM5KV | 2026-09-04 06:32:08 | 44.16292 | 20.57717 | 297° | 37km/h | 27843m | 7.7m/s | -47.3°C | 2.8% | 0hPa | 5.5V | 00:00:00 | 00:00:00 | 00:00:00 | |
| OM5KV | 2026-09-04 06:32:06 | 44.16282 | 20.57736 | 320° | 33km/h | 27832m | 5.7m/s | -47.4°C | 2.9% | 0hPa | 5.5V | 00:00:00 | 00:00:00 | 00:00:00 | |
| OM5KV | 2026-09-04 06:32:05 | 44.16275 | 20.57742 | 332° | 24km/h | 27825m | 7.5m/s | -47.4°C | 2.9% | 0hPa | 5.5V | 00:00:00 | 00:00:00 | 00:00:00 | |
| OM5KV | 2026-09-04 06:32:01 | 44.16273 | 20.57752 | 262° | 24km/h | 27797m | 7.6m/s | -47.7°C | 2.9% | 0hPa | 5.5V | 00:00:00 | 00:00:00 | 00:00:00 | |
| OM5KV | 2026-09-04 06:31:56 | 44.16266 | 20.57813 | 288° | 26km/h | 27765m | 5.9m/s | -47.6°C | 3.0% | 0hPa | 5.5V | 00:00:00 | 00:00:00 | 00:00:00 | |
| OM5KV | 2026-09-04 06:31:50 | 44.16253 | 20.57846 | 306° | 9km/h | 27726m | 7.5m/s | -47.5°C | 2.9% | 0hPa | 5.5V | 00:00:00 | 00:00:00 | 00:00:00 | |
| OM5KV | 2026-09-04 06:31:44 | 44.16248 | 20.57886 | 275° | 16km/h | 27690m | 8.1m/s | -47.5°C | 3.0% | 0hPa | 5.5V | 00:00:00 | 00:00:00 | 00:00:00 | |
| OM5KV | 2026-09-04 06:31:43 | 44.16249 | 20.57890 | 236° | 7km/h | 27682m | 8.6m/s | -47.4°C | 2.9% | 0hPa | 5.5V | 00:00:00 | 00:00:00 | 00:00:00 | |
| LZ4TU-5 | 2026-09-04 06:31:32 | 44.16253 | 20.57950 | 315° | 7km/h | 27611m | 6.4m/s | -46.9°C | 2.8% | 0hPa | 5.5V | 00:00:00 | 00:00:00 | 00:00:00 | |
| OM5KV | 2026-09-04 06:31:30 | 44.16250 | 20.57951 | 359° | 5km/h | 27601m | 5.4m/s | -46.9°C | 2.8% | 0hPa | 5.5V | 00:00:00 | 00:00:00 | 00:00:00 | |
| OM5KV | 2026-09-04 06:31:29 | 44.16249 | 20.57952 | 291° | 5km/h | 27593m | 7.6m/s | -46.9°C | 2.8% | 0hPa | 5.5V | 00:00:00 | 00:00:00 | 00:00:00 | |
| LZ4TU-5 | 2026-09-04 06:31:27 | 44.16249 | 20.57963 | 265° | 24km/h | 27580m | 6.1m/s | -46.8°C | 2.8% | 0hPa | 5.5V | 00:00:00 | 00:00:00 | 00:00:00 | |
| OM5KV | 2026-09-04 06:31:24 | 44.16256 | 20.57984 | 231° | 20km/h | 27560m | 5.0m/s | -46.8°C | 2.8% | 0hPa | 5.5V | 00:00:00 | 00:00:00 | 00:00:00 | |
| OM5KV | 2026-09-04 06:31:23 | 44.16258 | 20.57989 | 243° | 15km/h | 27555m | 5.5m/s | -46.8°C | 2.8% | 0hPa | 5.5V | 00:00:00 | 00:00:00 | 00:00:00 | |
| OM5KV | 2026-09-04 06:31:19 | 44.16248 | 20.57999 | 348° | 18km/h | 27529m | 4.2m/s | -46.7°C | 2.8% | 0hPa | 5.5V | 00:00:00 | 00:00:00 | 00:00:00 | |
| OM5KV | 2026-09-04 06:31:18 | 44.16245 | 20.58001 | 318° | 11km/h | 27522m | 6.9m/s | -46.6°C | 2.7% | 0hPa | 5.5V | 00:00:00 | 00:00:00 | 00:00:00 | |
| OM5KV | 2026-09-04 06:31:13 | 44.16264 | 20.58024 | 204° | 13km/h | 27488m | 4.4m/s | -46.6°C | 2.8% | 0hPa | 5.5V | 00:00:00 | 00:00:00 | 00:00:00 | |
| OM5KV | 2026-09-04 06:31:06 | 44.16250 | 20.58043 | 210° | 5km/h | 27444m | 7.9m/s | -46.6°C | 2.7% | 0hPa | 5.5V | 00:00:00 | 00:00:00 | 00:00:00 | |
| OM5KV | 2026-09-04 06:30:57 | 44.16265 | 20.58079 | 251° | 16km/h | 27382m | 5.2m/s | -46.5°C | 2.7% | 0hPa | 5.5V | 00:00:00 | 00:00:00 | 00:00:00 | |
| OM5KV | 2026-09-04 06:30:56 | 44.16267 | 20.58083 | 223° | 11km/h | 27374m | 7.8m/s | -46.5°C | 2.6% | 0hPa | 5.5V | 00:00:00 | 00:00:00 | 00:00:00 | |
| OM5KV | 2026-09-04 06:30:55 | 44.16270 | 20.58084 | 176° | 15km/h | 27367m | 7.8m/s | -46.4°C | 2.6% | 0hPa | 5.5V | 00:00:00 | 00:00:00 | 00:00:00 | |
| OM5KV | 2026-09-04 06:30:50 | 44.16293 | 20.58097 | 248° | 22km/h | 27335m | 5.2m/s | -46.3°C | 2.5% | 0hPa | 5.5V | 00:00:00 | 00:00:00 | 00:00:00 | |
| OM5KV | 2026-09-04 06:30:43 | 44.16292 | 20.58115 | 244° | 13km/h | 27286m | 5.9m/s | -46.3°C | 2.5% | 0hPa | 5.5V | 00:00:00 | 00:00:00 | 00:00:00 | |
| OM5KV | 2026-09-04 06:30:42 | 44.16294 | 20.58118 | 225° | 13km/h | 27279m | 7.4m/s | -46.3°C | 2.5% | 0hPa | 5.5V | 00:00:00 | 00:00:00 | 00:00:00 | |
| OM5KV | 2026-09-04 06:30:38 | 44.16301 | 20.58127 | 283° | 11km/h | 27250m | 8.8m/s | -46.3°C | 2.5% | 0hPa | 5.5V | 00:00:00 | 00:00:00 | 00:00:00 | |
| OM5KV | 2026-09-04 06:30:36 | 44.16296 | 20.58136 | 325° | 18km/h | 27237m | 4.9m/s | -46.5°C | 2.5% | 0hPa | 5.5V | 00:00:00 | 00:00:00 | 00:00:00 | |
| OM5KV | 2026-09-04 06:30:29 | 44.16297 | 20.58134 | 226° | 13km/h | 27190m | 5.3m/s | -47.1°C | 2.6% | 0hPa | 5.5V | 00:00:00 | 00:00:00 | 00:00:00 | |
| OM5KV | 2026-09-04 06:30:21 | 44.16306 | 20.58154 | 145° | 9km/h | 27134m | 7.3m/s | -47.4°C | 2.6% | 0hPa | 5.5V | 00:00:00 | 00:00:00 | 00:00:00 | |
| OM5KV | 2026-09-04 06:30:20 | 44.16309 | 20.58153 | 184° | 15km/h | 27125m | 8.1m/s | -47.4°C | 2.7% | 0hPa | 5.5V | 00:00:00 | 00:00:00 | 00:00:00 | |
| OM5KV | 2026-09-04 06:30:17 | 44.16325 | 20.58162 | 214° | 20km/h | 27105m | 9.1m/s | -47.5°C | 2.7% | 0hPa | 5.5V | 00:00:00 | 00:00:00 | 00:00:00 | |
| OM5KV | 2026-09-04 06:30:14 | 44.16328 | 20.58173 | 244° | 7km/h | 27086m | 9.4m/s | -47.7°C | 2.7% | 0hPa | 5.5V | 00:00:00 | 00:00:00 | 00:00:00 | |
| OM5KV | 2026-09-04 06:30:11 | 44.16333 | 20.58162 | 105° | 18km/h | 27065m | 8.5m/s | -47.7°C | 2.8% | 0hPa | 5.5V | 00:00:00 | 00:00:00 | 00:00:00 | |
| OM5KV | 2026-09-04 06:30:09 | 44.16335 | 20.58155 | 171° | 5km/h | 27051m | 4.9m/s | -47.8°C | 2.8% | 0hPa | 5.5V | 00:00:00 | 00:00:00 | 00:00:00 | |
| OM5KV | 2026-09-04 06:30:07 | 44.16339 | 20.58156 | 181° | 11km/h | 27035m | 9.0m/s | -47.8°C | 2.8% | 0hPa | 5.5V | 00:00:00 | 00:00:00 | 00:00:00 | |
| OM5KV | 2026-09-04 06:30:05 | 44.16344 | 20.58157 | 220° | 5km/h | 27022m | 7.0m/s | -47.9°C | 2.8% | 0hPa | 5.5V | 00:00:00 | 00:00:00 | 00:00:00 | |
| LZ4TU-5 | 2026-09-04 06:30:04 | 44.16344 | 20.58159 | 267° | 5km/h | 27014m | 8.5m/s | -47.8°C | 2.8% | 0hPa | 5.5V | 00:00:00 | 00:00:00 | 00:00:00 | |
| OM5KV | 2026-09-04 06:30:03 | 44.16344 | 20.58160 | 0° | 0km/h | 27010m | 3.8m/s | -47.9°C | 2.8% | 0hPa | 5.5V | 00:00:00 | 00:00:00 | 00:00:00 | |
| LZ4TU-5 | 2026-09-04 06:30:00 | 44.16347 | 20.58148 | 119° | 24km/h | 26988m | 6.7m/s | -47.9°C | 2.8% | 0hPa | 5.5V | 00:00:00 | 00:00:00 | 00:00:00 | |
| OM5KV | 2026-09-04 06:29:52 | 44.16364 | 20.58156 | 275° | 9km/h | 26933m | 7.7m/s | -47.8°C | 2.8% | 0hPa | 5.5V | 00:00:00 | 00:00:00 | 00:00:00 | |
| OM5KV | 2026-09-04 06:29:46 | 44.16374 | 20.58147 | 124° | 29km/h | 26893m | 8.6m/s | -47.7°C | 2.7% | 0hPa | 5.5V | 00:00:00 | 00:00:00 | 00:00:00 | |
| OM5KV | 2026-09-04 06:29:45 | 44.16378 | 20.58140 | 133° | 26km/h | 26889m | 3.7m/s | -47.7°C | 2.7% | 0hPa | 5.5V | 00:00:00 | 00:00:00 | 00:00:00 | |
| OM5KV | 2026-09-04 06:29:41 | 44.16385 | 20.58149 | 279° | 24km/h | 26857m | 7.8m/s | -47.8°C | 2.7% | 0hPa | 5.5V | 00:00:00 | 00:00:00 | 00:00:00 | |
| OM5KV | 2026-09-04 06:29:39 | 44.16385 | 20.58161 | 250° | 9km/h | 26844m | 5.8m/s | -47.6°C | 2.7% | 0hPa | 5.5V | 00:00:00 | 00:00:00 | 00:00:00 | |
| OM5KV | 2026-09-04 06:29:29 | 44.16418 | 20.58145 | 246° | 7km/h | 26775m | 8.4m/s | -47.3°C | 2.6% | 0hPa | 5.5V | 00:00:00 | 00:00:00 | 00:00:00 | |
| OM5KV | 2026-09-04 06:29:23 | 44.16432 | 20.58131 | 150° | 22km/h | 26732m | 6.4m/s | -47.0°C | 2.5% | 0hPa | 5.5V | 00:00:00 | 00:00:00 | 00:00:00 | |
| OM5KV | 2026-09-04 06:29:22 | 44.16437 | 20.58127 | 153° | 18km/h | 26724m | 8.1m/s | -46.9°C | 2.5% | 0hPa | 5.5V | 00:00:00 | 00:00:00 | 00:00:00 | |
| OM5KV | 2026-09-04 06:29:16 | 44.16455 | 20.58119 | 134° | 15km/h | 26684m | 8.1m/s | -47.0°C | 2.4% | 0hPa | 5.5V | 00:00:00 | 00:00:00 | 00:00:00 | |
| OM5KV | 2026-09-04 06:29:13 | 44.16458 | 20.58100 | 108° | 22km/h | 26662m | 7.5m/s | -47.1°C | 2.4% | 0hPa | 5.5V | 00:00:00 | 00:00:00 | 00:00:00 | |
| OM5KV | 2026-09-04 06:29:08 | 44.16472 | 20.58090 | 135° | 11km/h | 26626m | 6.6m/s | -47.3°C | 2.4% | 0hPa | 5.5V | 00:00:00 | 00:00:00 | 00:00:00 | |
| OM5KV | 2026-09-04 06:29:07 | 44.16475 | 20.58086 | 131° | 16km/h | 26620m | 5.9m/s | -47.4°C | 2.5% | 0hPa | 5.5V | 00:00:00 | 00:00:00 | 00:00:00 | |
| OM5KV | 2026-09-04 06:29:03 | 44.16483 | 20.58068 | 98° | 15km/h | 26595m | 7.4m/s | -47.9°C | 2.6% | 0hPa | 5.5V | 00:00:00 | 00:00:00 | 00:00:00 | |
| OM5KV | 2026-09-04 06:29:02 | 44.16483 | 20.58062 | 75° | 16km/h | 26585m | 9.9m/s | -48.0°C | 2.6% | 0hPa | 5.5V | 00:00:00 | 00:00:00 | 00:00:00 | |
| OM5KV | 2026-09-04 06:28:58 | 44.16476 | 20.58048 | 129° | 13km/h | 26558m | 6.2m/s | -48.2°C | 2.7% | 0hPa | 5.5V | 00:00:00 | 00:00:00 | 00:00:00 | |
| OM5KV | 2026-09-04 06:28:56 | 44.16480 | 20.58042 | 140° | 11km/h | 26543m | 9.2m/s | -48.2°C | 2.6% | 0hPa | 5.5V | 00:00:00 | 00:00:00 | 00:00:00 | |
| OM5KV | 2026-09-04 06:28:55 | 44.16482 | 20.58040 | 128° | 4km/h | 26537m | 5.8m/s | -48.2°C | 2.6% | 0hPa | 5.5V | 00:00:00 | 00:00:00 | 00:00:00 | |
| OM5KV | 2026-09-04 06:28:52 | 44.16481 | 20.58031 | 58° | 16km/h | 26516m | 6.1m/s | -48.2°C | 2.6% | 0hPa | 5.5V | 00:00:00 | 00:00:00 | 00:00:00 | |
| OM5KV | 2026-09-04 06:28:49 | 44.16468 | 20.58021 | 5° | 16km/h | 26495m | 6.1m/s | -48.1°C | 2.6% | 0hPa | 5.5V | 00:00:00 | 00:00:00 | 00:00:00 | |
| OM5KV | 2026-09-04 06:28:44 | 44.16474 | 20.58007 | 122° | 24km/h | 26461m | 6.0m/s | -48.0°C | 2.5% | 0hPa | 5.5V | 00:00:00 | 00:00:00 | 00:00:00 | |
| OM5KV | 2026-09-04 06:28:43 | 44.16476 | 20.58001 | 120° | 20km/h | 26456m | 4.4m/s | -48.1°C | 2.6% | 0hPa | 5.5V | 00:00:00 | 00:00:00 | 00:00:00 | |
| LZ4TU-5 | 2026-09-04 06:28:41 | 44.16478 | 20.57995 | 342° | 4km/h | 26444m | 7.2m/s | -48.2°C | 2.6% | 0hPa | 5.5V | 00:00:00 | 00:00:00 | 00:00:00 | |
| OM5KV | 2026-09-04 06:28:38 | 44.16459 | 20.57997 | 23° | 13km/h | 26419m | 6.0m/s | -48.3°C | 2.6% | 0hPa | 5.5V | 00:00:00 | 00:00:00 | 00:00:00 | |
| LZ4TU-5 | 2026-09-04 06:28:36 | 44.16457 | 20.57995 | 72° | 5km/h | 26410m | 8.9m/s | -48.2°C | 2.6% | 0hPa | 5.5V | 00:00:00 | 00:00:00 | 00:00:00 | |
| OM5KV | 2026-09-04 06:28:34 | 44.16461 | 20.57990 | 144° | 15km/h | 26395m | 6.8m/s | -48.2°C | 2.6% | 0hPa | 5.5V | 00:00:00 | 00:00:00 | 00:00:00 | |
| OM5KV | 2026-09-04 06:28:32 | 44.16465 | 20.57981 | 102° | 18km/h | 26382m | 6.3m/s | -48.2°C | 2.6% | 0hPa | 5.5V | 00:00:00 | 00:00:00 | 00:00:00 | |
| OM5KV | 2026-09-04 06:28:26 | 44.16445 | 20.57969 | 313° | 20km/h | 26344m | 4.2m/s | -48.3°C | 2.7% | 0hPa | 5.5V | 00:00:00 | 00:00:00 | 00:00:00 | |
| OM5KV | 2026-09-04 06:28:25 | 44.16442 | 20.57973 | 303° | 9km/h | 26339m | 5.7m/s | -48.3°C | 2.7% | 0hPa | 5.5V | 00:00:00 | 00:00:00 | 00:00:00 | |
| OM5KV | 2026-09-04 06:28:24 | 44.16442 | 20.57974 | 103° | 4km/h | 26330m | 8.7m/s | -48.3°C | 2.7% | 0hPa | 5.5V | 00:00:00 | 00:00:00 | 00:00:00 | |
| OM5KV | 2026-09-04 06:28:19 | 44.16452 | 20.57939 | 95° | 16km/h | 26297m | 5.1m/s | -48.2°C | 2.6% | 0hPa | 5.5V | 00:00:00 | 00:00:00 | 00:00:00 | |
| OM5KV | 2026-09-04 06:28:13 | 44.16440 | 20.57936 | 239° | 5km/h | 26257m | 4.2m/s | -47.9°C | 2.6% | 0hPa | 5.5V | 00:00:00 | 00:00:00 | 00:00:00 | |
| OM5KV | 2026-09-04 06:27:59 | 44.16403 | 20.57912 | 79° | 16km/h | 26162m | 7.3m/s | -47.7°C | 2.5% | 0hPa | 5.5V | 00:00:00 | 00:00:00 | 00:00:00 | |
| OM5KV | 2026-09-04 06:27:57 | 44.16402 | 20.57896 | 79° | 22km/h | 26151m | 7.1m/s | -47.8°C | 2.5% | 0hPa | 5.5V | 00:00:00 | 00:00:00 | 00:00:00 | |
| OM5KV | 2026-09-04 06:27:49 | 44.16366 | 20.57899 | 91° | 9km/h | 26095m | 6.7m/s | -48.1°C | 2.4% | 0hPa | 5.5V | 00:00:00 | 00:00:00 | 00:00:00 | |
| OM5KV | 2026-09-04 06:27:48 | 44.16367 | 20.57893 | 101° | 20km/h | 26087m | 8.2m/s | -48.1°C | 2.4% | 0hPa | 5.5V | 00:00:00 | 00:00:00 | 00:00:00 | |
| OM5KV | 2026-09-04 06:27:43 | 44.16355 | 20.57870 | 318° | 18km/h | 26053m | 7.4m/s | -48.0°C | 2.4% | 0hPa | 5.5V | 00:00:00 | 00:00:00 | 00:00:00 | |
| OM5KV | 2026-09-04 06:27:38 | 44.16342 | 20.57888 | 103° | 7km/h | 26024m | 4.5m/s | -48.0°C | 2.4% | 0hPa | 5.5V | 00:00:00 | 00:00:00 | 00:00:00 | |
| OM5KV | 2026-09-04 06:27:29 | 44.16334 | 20.57906 | 278° | 20km/h | 25968m | 2.9m/s | -48.1°C | 2.4% | 0hPa | 5.5V | 00:00:00 | 00:00:00 | 00:00:00 | |
| OM5KV | 2026-09-04 06:27:24 | 44.16336 | 20.57912 | 146° | 7km/h | 25933m | 8.8m/s | -48.4°C | 67.0% | 0hPa | 5.5V | 00:00:00 | 00:00:00 | 00:00:00 | |
| OM5KV | 2026-09-04 06:27:17 | 44.16352 | 20.57926 | 198° | 7km/h | 25887m | 8.9m/s | -48.5°C | 2.3% | 0hPa | 5.5V | 00:00:00 | 00:00:00 | 00:00:00 | |
| OM5KV | 2026-09-04 06:27:12 | 44.16373 | 20.57942 | 192° | 26km/h | 25854m | 5.3m/s | -48.6°C | 2.4% | 0hPa | 5.5V | 00:00:00 | 00:00:00 | 00:00:00 | |
| OM5KV | 2026-09-04 06:27:06 | 44.16394 | 20.57944 | 147° | 16km/h | 25814m | 4.8m/s | -48.5°C | 2.3% | 0hPa | 5.5V | 00:00:00 | 00:00:00 | 00:00:00 | |
| OM5KV | 2026-09-04 06:27:05 | 44.16398 | 20.57942 | 173° | 16km/h | 25809m | 6.1m/s | -48.6°C | 2.3% | 0hPa | 5.5V | 00:00:00 | 00:00:00 | 00:00:00 | |
| OM5KV | 2026-09-04 06:27:04 | 44.16403 | 20.57942 | 198° | 18km/h | 25800m | 8.3m/s | -48.6°C | 2.3% | 0hPa | 5.5V | 00:00:00 | 00:00:00 | 00:00:00 | |
| OM5KV | 2026-09-04 06:26:53 | 44.16445 | 20.57932 | 182° | 11km/h | 25732m | 4.5m/s | -49.1°C | 2.3% | 0hPa | 5.5V | 00:00:00 | 00:00:00 | 00:00:00 | |
| OM5KV | 2026-09-04 06:26:50 | 44.16457 | 20.57925 | 120° | 26km/h | 25714m | 3.6m/s | -49.1°C | 2.3% | 0hPa | 5.5V | 00:00:00 | 00:00:00 | 00:00:00 | |
| OM5KV | 2026-09-04 06:26:47 | 44.16458 | 20.57898 | 75° | 22km/h | 25693m | 5.7m/s | -49.2°C | 2.3% | 0hPa | 5.5V | 00:00:00 | 00:00:00 | 00:00:00 | |
| OM5KV | 2026-09-04 06:26:44 | 44.16460 | 20.57882 | 131° | 16km/h | 25674m | 7.7m/s | -49.2°C | 2.3% | 0hPa | 5.5V | 00:00:00 | 00:00:00 | 00:00:00 | |
| OM5KV | 2026-09-04 06:26:40 | 44.16471 | 20.57868 | 81° | 15km/h | 25650m | 5.6m/s | -49.3°C | 2.3% | 0hPa | 5.5V | 00:00:00 | 00:00:00 | 00:00:00 | |
| OM5KV | 2026-09-04 06:26:39 | 44.16469 | 20.57862 | 70° | 24km/h | 25643m | 6.5m/s | -49.4°C | 2.3% | 0hPa | 5.5V | 00:00:00 | 00:00:00 | 00:00:00 | |
| OM5KV | 2026-09-04 06:26:28 | 44.16450 | 20.57806 | 78° | 22km/h | 25570m | 8.2m/s | -50.0°C | 2.4% | 0hPa | 5.5V | 00:00:00 | 00:00:00 | 00:00:00 | |
| OM5KV | 2026-09-04 06:26:26 | 44.16444 | 20.57790 | 53° | 27km/h | 25559m | 5.4m/s | -50.2°C | 2.4% | 0hPa | 5.5V | 00:00:00 | 00:00:00 | 00:00:00 | |
| OM5KV | 2026-09-04 06:26:24 | 44.16434 | 20.57779 | 23° | 26km/h | 25545m | 7.3m/s | -50.3°C | 2.4% | 0hPa | 5.5V | 00:00:00 | 00:00:00 | 00:00:00 | |
| OM5KV | 2026-09-04 06:26:23 | 44.16427 | 20.57776 | 9° | 27km/h | 25540m | 4.6m/s | -50.4°C | 2.4% | 0hPa | 5.5V | 00:00:00 | 00:00:00 | 00:00:00 | |
| OM5KV | 2026-09-04 06:26:20 | 44.16410 | 20.57773 | 35° | 16km/h | 25522m | 4.4m/s | -50.4°C | 2.4% | 0hPa | 5.5V | 00:00:00 | 00:00:00 | 00:00:00 | |
| OM5KV | 2026-09-04 06:26:13 | 44.16383 | 20.57762 | 359° | 31km/h | 25477m | 6.5m/s | -50.5°C | 2.4% | 0hPa | 5.5V | 00:00:00 | 00:00:00 | 00:00:00 | |
| OM5KV | 2026-09-04 06:26:07 | 44.16355 | 20.57763 | 346° | 11km/h | 25438m | 6.6m/s | -50.6°C | 2.4% | 0hPa | 5.5V | 00:00:00 | 00:00:00 | 00:00:00 | |
| OM5KV | 2026-09-04 06:26:04 | 44.16350 | 20.57770 | 314° | 13km/h | 25417m | 4.7m/s | -50.6°C | 2.5% | 0hPa | 5.5V | 00:00:00 | 00:00:00 | 00:00:00 | |
| OM5KV | 2026-09-04 06:26:03 | 44.16347 | 20.57773 | 332° | 16km/h | 25412m | 4.3m/s | -50.7°C | 2.5% | 0hPa | 5.5V | 00:00:00 | 00:00:00 | 00:00:00 | |
| OM5KV | 2026-09-04 06:25:58 | 44.16325 | 20.57768 | 62° | 7km/h | 25380m | 7.6m/s | -51.1°C | 2.6% | 0hPa | 5.5V | 00:00:00 | 00:00:00 | 00:00:00 | |
| OM5KV | 2026-09-04 06:25:51 | 44.16333 | 20.57784 | 35° | 7km/h | 25335m | 4.4m/s | -51.1°C | 2.6% | 0hPa | 5.5V | 00:00:00 | 00:00:00 | 00:00:00 | |
| OM5KV | 2026-09-04 06:25:50 | 44.16331 | 20.57782 | 37° | 13km/h | 25331m | 4.5m/s | -51.1°C | 2.6% | 0hPa | 5.5V | 00:00:00 | 00:00:00 | 00:00:00 | |
| OM5KV | 2026-09-04 06:25:44 | 44.16336 | 20.57778 | 0° | 0km/h | 25291m | 6.9m/s | -51.1°C | 2.6% | 0hPa | 5.5V | 00:00:00 | 00:00:00 | 00:00:00 | |
| OM5KV | 2026-09-04 06:25:42 | 44.16337 | 20.57779 | 0° | 0km/h | 25281m | 4.4m/s | -51.1°C | 2.6% | 0hPa | 5.5V | 00:00:00 | 00:00:00 | 00:00:00 | |
| LZ4TU-5 | 2026-09-04 06:25:40 | 44.16339 | 20.57780 | 193° | 9km/h | 25268m | 4.7m/s | -51.2°C | 2.6% | 0hPa | 5.5V | 00:00:00 | 00:00:00 | 00:00:00 | |
| OM5KV | 2026-09-04 06:25:39 | 44.16342 | 20.57781 | 190° | 9km/h | 25262m | 5.6m/s | -51.2°C | 2.6% | 0hPa | 5.5V | 00:00:00 | 00:00:00 | 00:00:00 | |
| OM5KV | 2026-09-04 06:25:37 | 44.16345 | 20.57778 | 126° | 15km/h | 25249m | 4.1m/s | -51.1°C | 2.6% | 0hPa | 5.5V | 00:00:00 | 00:00:00 | 00:00:00 | |
| OM5KV | 2026-09-04 06:25:36 | 44.16349 | 20.57773 | 135° | 20km/h | 25244m | 5.3m/s | -51.2°C | 2.6% | 0hPa | 5.5V | 00:00:00 | 00:00:00 | 00:00:00 | |
| OM5KV | 2026-09-04 06:25:32 | 44.16362 | 20.57771 | 209° | 7km/h | 25216m | 9.1m/s | -51.0°C | 2.5% | 0hPa | 5.5V | 00:00:00 | 00:00:00 | 00:00:00 | |
| OM5KV | 2026-09-04 06:25:29 | 44.16364 | 20.57774 | 243° | 7km/h | 25197m | 7.5m/s | -50.9°C | 2.5% | 0hPa | 5.5V | 00:00:00 | 00:00:00 | 00:00:00 | |
| OM5KV | 2026-09-04 06:25:26 | 44.16375 | 20.57773 | 140° | 20km/h | 25169m | 7.1m/s | -51.0°C | 2.5% | 0hPa | 5.5V | 00:00:00 | 00:00:00 | 00:00:00 | |
| OM5KV | 2026-09-04 06:25:20 | 44.16391 | 20.57769 | 246° | 13km/h | 25139m | 6.1m/s | -51.2°C | 2.6% | 0hPa | 5.5V | 00:00:00 | 00:00:00 | 00:00:00 | |
| OM5KV | 2026-09-04 06:25:15 | 44.16405 | 20.57773 | 165° | 13km/h | 25107m | 6.8m/s | -51.0°C | 2.5% | 0hPa | 5.5V | 00:00:00 | 00:00:00 | 00:00:00 | |
| OM5KV | 2026-09-04 06:25:14 | 44.16408 | 20.57773 | 176° | 13km/h | 25101m | 5.4m/s | -51.0°C | 2.6% | 0hPa | 5.5V | 00:00:00 | 00:00:00 | 00:00:00 | |
| OM5KV | 2026-09-04 06:25:09 | 44.16427 | 20.57761 | 164° | 15km/h | 25070m | 7.3m/s | -51.1°C | 2.5% | 0hPa | 5.5V | 00:00:00 | 00:00:00 | 00:00:00 | |
| OM5KV | 2026-09-04 06:25:05 | 44.16440 | 20.57770 | 224° | 7km/h | 25043m | 7.6m/s | -51.1°C | 2.5% | 0hPa | 5.5V | 00:00:00 | 00:00:00 | 00:00:00 | |
| OM5KV | 2026-09-04 06:24:58 | 44.16452 | 20.57773 | 159° | 18km/h | 25001m | 5.2m/s | -51.0°C | 2.5% | 0hPa | 5.5V | 00:00:00 | 00:00:00 | 00:00:00 | |
| OM5KV | 2026-09-04 06:24:53 | 44.16462 | 20.57770 | 217° | 5km/h | 24971m | 6.8m/s | -51.1°C | 2.5% | 0hPa | 5.5V | 00:00:00 | 00:00:00 | 00:00:00 | |
| OM5KV | 2026-09-04 06:24:52 | 44.16465 | 20.57772 | 198° | 13km/h | 24963m | 8.3m/s | -51.1°C | 2.5% | 0hPa | 5.5V | 00:00:00 | 00:00:00 | 00:00:00 | |
| OM5KV | 2026-09-04 06:24:49 | 44.16479 | 20.57777 | 191° | 16km/h | 24944m | 6.4m/s | -51.1°C | 2.5% | 0hPa | 5.5V | 00:00:00 | 00:00:00 | 00:00:00 | |
| OM5KV | 2026-09-04 06:24:48 | 44.16482 | 20.57777 | 166° | 13km/h | 24938m | 5.6m/s | -51.2°C | 2.5% | 0hPa | 5.5V | 00:00:00 | 00:00:00 | 00:00:00 | |
| OM5KV | 2026-09-04 06:24:42 | 44.16494 | 20.57772 | 240° | 7km/h | 24901m | 5.3m/s | -51.0°C | 2.5% | 0hPa | 5.5V | 00:00:00 | 00:00:00 | 00:00:00 | |
| OM5KV | 2026-09-04 06:24:37 | 44.16520 | 20.57773 | 150° | 29km/h | 24870m | 6.8m/s | -51.2°C | 2.4% | 0hPa | 5.5V | 00:00:00 | 00:00:00 | 00:00:00 | |
| OM5KV | 2026-09-04 06:24:33 | 44.16530 | 20.57757 | 101° | 5km/h | 24848m | 4.3m/s | -51.3°C | 2.4% | 0hPa | 5.5V | 00:00:00 | 00:00:00 | 00:00:00 | |
| OM5KV | 2026-09-04 06:24:25 | 44.16562 | 20.57747 | 123° | 13km/h | 24793m | 6.5m/s | -51.1°C | 2.4% | 0hPa | 5.5V | 00:00:00 | 00:00:00 | 00:00:00 | |
| OM5KV | 2026-09-04 06:24:21 | 44.16564 | 20.57737 | 214° | 13km/h | 24766m | 6.0m/s | -51.0°C | 2.4% | 0hPa | 5.5V | 00:00:00 | 00:00:00 | 00:00:00 | |
| OM5KV | 2026-09-04 06:24:13 | 44.16577 | 20.57752 | 309° | 16km/h | 24717m | 5.1m/s | -51.0°C | 2.4% | 0hPa | 5.5V | 00:00:00 | 00:00:00 | 00:00:00 | |
| OM5KV | 2026-09-04 06:24:09 | 44.16587 | 20.57759 | 192° | 22km/h | 24688m | 9.2m/s | -50.9°C | 2.4% | 0hPa | 5.5V | 00:00:00 | 00:00:00 | 00:00:00 | |
| OM5KV | 2026-09-04 06:24:07 | 44.16594 | 20.57764 | 225° | 9km/h | 24678m | 5.1m/s | -50.9°C | 2.3% | 0hPa | 5.5V | 00:00:00 | 00:00:00 | 00:00:00 | |
| OM5KV | 2026-09-04 06:24:02 | 44.16584 | 20.57780 | 303° | 27km/h | 24643m | 5.3m/s | -51.0°C | 2.3% | 0hPa | 5.5V | 00:00:00 | 00:00:00 | 00:00:00 | |
| LZ4TU-5 | 2026-09-04 06:23:59 | 44.16580 | 20.57796 | 189° | 7km/h | 24624m | 7.3m/s | -51.2°C | 2.3% | 0hPa | 5.5V | 00:00:00 | 00:00:00 | 00:00:00 | |
| LZ4TU-5 | 2026-09-04 06:23:54 | 44.16583 | 20.57801 | 326° | 18km/h | 24592m | 7.5m/s | -51.0°C | 2.2% | 0hPa | 5.5V | 00:00:00 | 00:00:00 | 00:00:00 | |
| OM5KV | 2026-09-04 06:23:50 | 44.16561 | 20.57827 | 308° | 31km/h | 24566m | 7.5m/s | -50.9°C | 2.2% | 0hPa | 5.5V | 00:00:00 | 00:00:00 | 00:00:00 | |
| OM5KV | 2026-09-04 06:23:49 | 44.16557 | 20.57837 | 286° | 27km/h | 24559m | 6.5m/s | -50.8°C | 2.2% | 0hPa | 5.5V | 00:00:00 | 00:00:00 | 00:00:00 | |
| OM5KV | 2026-09-04 06:23:40 | 44.16566 | 20.57855 | 265° | 20km/h | 24498m | 7.0m/s | -50.9°C | 2.3% | 0hPa | 5.5V | 00:00:00 | 00:00:00 | 00:00:00 | |
| OM5KV | 2026-09-04 06:23:32 | 44.16588 | 20.57876 | 158° | 15km/h | 24453m | 3.2m/s | -51.0°C | 2.2% | 0hPa | 5.5V | 00:00:00 | 00:00:00 | 00:00:00 | |
| OM5KV | 2026-09-04 06:23:28 | 44.16587 | 20.57888 | 285° | 24km/h | 24427m | 4.9m/s | -51.0°C | 2.2% | 0hPa | 5.5V | 00:00:00 | 00:00:00 | 00:00:00 | |
| OM5KV | 2026-09-04 06:23:27 | 44.16587 | 20.57898 | 264° | 27km/h | 24422m | 4.6m/s | -51.1°C | 2.3% | 0hPa | 5.5V | 00:00:00 | 00:00:00 | 00:00:00 | |
| OM5KV | 2026-09-04 06:23:22 | 44.16611 | 20.57918 | 143° | 11km/h | 24389m | 7.1m/s | -51.2°C | 2.3% | 0hPa | 5.5V | 00:00:00 | 00:00:00 | 00:00:00 | |
| OM5KV | 2026-09-04 06:23:19 | 44.16610 | 20.57915 | 302° | 9km/h | 24370m | 4.7m/s | -51.2°C | 2.3% | 0hPa | 5.5V | 00:00:00 | 00:00:00 | 00:00:00 | |
| OM5KV | 2026-09-04 06:23:16 | 44.16607 | 20.57937 | 264° | 31km/h | 24351m | 4.7m/s | -51.1°C | 2.3% | 0hPa | 5.5V | 00:00:00 | 00:00:00 | 00:00:00 | |
| OM5KV | 2026-09-04 06:23:11 | 44.16630 | 20.57958 | 153° | 18km/h | 24318m | 4.5m/s | -51.1°C | 2.3% | 0hPa | 5.5V | 00:00:00 | 00:00:00 | 00:00:00 | |
| OM5KV | 2026-09-04 06:23:10 | 44.16634 | 20.57955 | 149° | 13km/h | 24313m | 5.0m/s | -51.2°C | 2.3% | 0hPa | 5.5V | 00:00:00 | 00:00:00 | 00:00:00 | |
| OM5KV | 2026-09-04 06:23:04 | 44.16649 | 20.57976 | 190° | 15km/h | 24275m | 5.1m/s | -51.6°C | 2.4% | 0hPa | 5.5V | 00:00:00 | 00:00:00 | 00:00:00 | |
| OM5KV | 2026-09-04 06:23:03 | 44.16653 | 20.57977 | 183° | 15km/h | 24267m | 8.8m/s | -51.6°C | 2.4% | 0hPa | 5.5V | 00:00:00 | 00:00:00 | 00:00:00 | |
| OM5KV | 2026-09-04 06:22:56 | 44.16675 | 20.57954 | 203° | 13km/h | 24221m | 6.1m/s | -51.4°C | 2.3% | 0hPa | 5.5V | 00:00:00 | 00:00:00 | 00:00:00 | |
| OM5KV | 2026-09-04 06:22:55 | 44.16677 | 20.57957 | 212° | 13km/h | 24217m | 3.0m/s | -51.6°C | 2.4% | 0hPa | 5.5V | 00:00:00 | 00:00:00 | 00:00:00 | |
| OM5KV | 2026-09-04 06:22:51 | 44.16695 | 20.57954 | 155° | 20km/h | 24191m | 7.3m/s | -51.6°C | 2.3% | 0hPa | 5.5V | 00:00:00 | 00:00:00 | 00:00:00 | |
| OM5KV | 2026-09-04 06:22:42 | 44.16709 | 20.57931 | 154° | 16km/h | 24133m | 6.4m/s | -51.8°C | 2.4% | 0hPa | 5.5V | 00:00:00 | 00:00:00 | 00:00:00 | |
| OM5KV | 2026-09-04 06:22:39 | 44.16716 | 20.57914 | 105° | 20km/h | 24113m | 6.4m/s | -52.0°C | 2.4% | 0hPa | 5.5V | 00:00:00 | 00:00:00 | 00:00:00 | |
| OM5KV | 2026-09-04 06:22:34 | 44.16714 | 20.57902 | 307° | 7km/h | 24082m | 3.7m/s | -52.3°C | 2.5% | 0hPa | 5.5V | 00:00:00 | 00:00:00 | 00:00:00 | |
| LZ4TU-5 | 2026-09-04 06:22:29 | 44.16728 | 20.57910 | 151° | 13km/h | 24049m | 6.5m/s | -52.3°C | 2.5% | 0hPa | 5.5V | 00:00:00 | 00:00:00 | 00:00:00 | |
| LZ4TU-5 | 2026-09-04 06:22:24 | 44.16736 | 20.57890 | 175° | 7km/h | 24017m | 6.6m/s | -52.3°C | 2.5% | 0hPa | 5.5V | 00:00:00 | 00:00:00 | 00:00:00 | |
| OM5KV | 2026-09-04 06:22:20 | 44.16749 | 20.57901 | 188° | 26km/h | 23992m | 8.5m/s | -52.2°C | 2.4% | 0hPa | 5.5V | 00:00:00 | 00:00:00 | 00:00:00 | |
| OM5KV | 2026-09-04 06:22:17 | 44.16769 | 20.57884 | 129° | 27km/h | 23975m | 8.6m/s | -52.2°C | 2.5% | 0hPa | 5.5V | 00:00:00 | 00:00:00 | 00:00:00 | |
| OM5KV | 2026-09-04 06:22:11 | 44.16782 | 20.57865 | 192° | 26km/h | 23940m | 4.5m/s | -52.3°C | 2.5% | 0hPa | 5.5V | 00:00:00 | 00:00:00 | 00:00:00 | |
| OM5KV | 2026-09-04 06:22:07 | 44.16805 | 20.57874 | 181° | 16km/h | 23914m | 7.3m/s | -52.2°C | 2.5% | 0hPa | 5.5V | 00:00:00 | 00:00:00 | 00:00:00 | |
| OM5KV | 2026-09-04 06:22:06 | 44.16809 | 20.57872 | 145° | 18km/h | 23906m | 7.8m/s | -52.1°C | 2.5% | 0hPa | 5.5V | 00:00:00 | 00:00:00 | 00:00:00 | |
| OE3JTB-15 | 2026-09-04 06:22:04 | 44.16814 | 20.57861 | 120° | 15km/h | 23894m | 7.0m/s | -51.4°C | 0% | 0hPa | 5.5V | 00:00:00 | 00:00:00 | 00:00:00 | |
| OM5KV | 2026-09-04 06:22:01 | 44.16823 | 20.57854 | 173° | 18km/h | 23873m | 7.8m/s | -52.1°C | 2.5% | 0hPa | 5.5V | 00:00:00 | 00:00:00 | 00:00:00 | |
| OM5KV | 2026-09-04 06:22:00 | 44.16829 | 20.57854 | 176° | 24km/h | 23867m | 6.1m/s | -52.0°C | 2.5% | 0hPa | 5.5V | 00:00:00 | 00:00:00 | 00:00:00 | |
| OM5KV | 2026-09-04 06:21:49 | 44.16874 | 20.57833 | 198° | 20km/h | 23801m | 6.2m/s | -51.9°C | 2.4% | 0hPa | 5.5V | 00:00:00 | 00:00:00 | 00:00:00 | |
| OM5KV | 2026-09-04 06:21:48 | 44.16879 | 20.57835 | 209° | 18km/h | 23795m | 5.5m/s | -52.0°C | 2.5% | 0hPa | 5.5V | 00:00:00 | 00:00:00 | 00:00:00 | |
| OM5KV | 2026-09-04 06:21:45 | 44.16882 | 20.57834 | 74° | 13km/h | 23776m | 5.7m/s | -52.0°C | 2.4% | 0hPa | 5.5V | 00:00:00 | 00:00:00 | 00:00:00 | |
| OM5KV | 2026-09-04 06:21:44 | 44.16882 | 20.57829 | 88° | 18km/h | 23769m | 7.6m/s | -52.0°C | 2.5% | 0hPa | 5.5V | 00:00:00 | 00:00:00 | 00:00:00 | |
| OM5KV | 2026-09-04 06:21:31 | 44.16888 | 20.57790 | 141° | 18km/h | 23691m | 7.6m/s | -52.5°C | 2.6% | 0hPa | 5.5V | 00:00:00 | 00:00:00 | 00:00:00 | |
| OM5KV | 2026-09-04 06:21:28 | 44.16892 | 20.57780 | 0° | 0km/h | 23674m | 5.6m/s | -52.8°C | 2.7% | 0hPa | 5.5V | 00:00:00 | 00:00:00 | 00:00:00 | |
| OM5KV | 2026-09-04 06:21:24 | 44.16890 | 20.57784 | 0° | 0km/h | 23648m | 7.6m/s | -52.9°C | 2.7% | 0hPa | 5.5V | 00:00:00 | 00:00:00 | 00:00:00 | |
| OM5KV | 2026-09-04 06:21:22 | 44.16888 | 20.57782 | 73° | 5km/h | 23637m | 4.6m/s | -52.8°C | 2.7% | 0hPa | 5.5V | 00:00:00 | 00:00:00 | 00:00:00 | |
| OM5KV | 2026-09-04 06:21:18 | 44.16898 | 20.57772 | 166° | 15km/h | 23611m | 7.0m/s | -52.7°C | 2.7% | 0hPa | 5.5V | 00:00:00 | 00:00:00 | 00:00:00 | |
| OM5KV | 2026-09-04 06:21:13 | 44.16904 | 20.57784 | 262° | 4km/h | 23577m | 8.6m/s | -52.2°C | 2.6% | 0hPa | 5.5V | 00:00:00 | 00:00:00 | 00:00:00 | |
| OM5KV | 2026-09-04 06:21:08 | 44.16917 | 20.57778 | 206° | 13km/h | 23546m | 7.7m/s | -52.2°C | 2.5% | 0hPa | 5.5V | 00:00:00 | 00:00:00 | 00:00:00 | |
| LZ4TU-5 | 2026-09-04 06:20:59 | 44.16938 | 20.57787 | 167° | 18km/h | 23485m | 7.9m/s | -52.2°C | 2.6% | 0hPa | 5.5V | 00:00:00 | 00:00:00 | 00:00:00 | |
| OM5KV | 2026-09-04 06:20:54 | 44.16957 | 20.57799 | 214° | 15km/h | 23454m | 7.0m/s | -52.1°C | 2.5% | 0hPa | 5.5V | 00:00:00 | 00:00:00 | 00:00:00 | |
| OM5KV | 2026-09-04 06:20:49 | 44.16979 | 20.57801 | 155° | 22km/h | 23425m | 7.5m/s | -52.1°C | 2.5% | 0hPa | 5.5V | 00:00:00 | 00:00:00 | 00:00:00 | |
| OM5KV | 2026-09-04 06:20:45 | 44.16984 | 20.57796 | 238° | 5km/h | 23398m | 9.3m/s | -51.9°C | 2.4% | 0hPa | 5.5V | 00:00:00 | 00:00:00 | 00:00:00 | |
| OM5KV | 2026-09-04 06:20:43 | 44.16988 | 20.57801 | 209° | 13km/h | 23386m | 5.5m/s | -51.7°C | 2.3% | 0hPa | 5.5V | 00:00:00 | 00:00:00 | 00:00:00 | |
| OM5KV | 2026-09-04 06:20:41 | 44.16994 | 20.57803 | 185° | 11km/h | 23375m | 7.8m/s | -51.9°C | 2.4% | 0hPa | 5.5V | 00:00:00 | 00:00:00 | 00:00:00 | |
| OM5KV | 2026-09-04 06:20:29 | 44.17019 | 20.57792 | 161° | 9km/h | 23295m | 8.4m/s | -51.6°C | 2.2% | 0hPa | 5.5V | 00:00:00 | 00:00:00 | 00:00:00 | |
| OM5KV | 2026-09-04 06:20:25 | 44.17024 | 20.57788 | 143° | 9km/h | 23271m | 4.9m/s | -51.6°C | 2.2% | 0hPa | 5.5V | 00:00:00 | 00:00:00 | 00:00:00 | |
| OM5KV | 2026-09-04 06:20:18 | 44.17035 | 20.57757 | 105° | 18km/h | 23231m | 5.5m/s | -51.9°C | 2.2% | 0hPa | 5.5V | 00:00:00 | 00:00:00 | 00:00:00 | |
| OM5KV | 2026-09-04 06:20:05 | 44.17025 | 20.57715 | 66° | 15km/h | 23149m | 5.2m/s | -52.3°C | 2.2% | 0hPa | 5.5V | 00:00:00 | 00:00:00 | 00:00:00 | |
| OM5KV | 2026-09-04 06:19:55 | 44.16994 | 20.57696 | 121° | 4km/h | 23087m | 5.7m/s | -52.8°C | 2.3% | 0hPa | 5.5V | 00:00:00 | 00:00:00 | 00:00:00 | |
| OM5KV | 2026-09-04 06:19:49 | 44.16988 | 20.57694 | 27° | 15km/h | 23051m | 6.1m/s | -53.0°C | 2.3% | 0hPa | 5.5V | 00:00:00 | 00:00:00 | 00:00:00 | |
| OM5KV | 2026-09-04 06:19:43 | 44.16966 | 20.57684 | 224° | 4km/h | 23013m | 7.4m/s | -53.2°C | 2.3% | 0hPa | 5.5V | 00:00:00 | 00:00:00 | 00:00:00 | |
| OM5KV | 2026-09-04 06:19:42 | 44.16967 | 20.57685 | 227° | 11km/h | 23008m | 5.0m/s | -53.2°C | 2.3% | 0hPa | 5.5V | 00:00:00 | 00:00:00 | 00:00:00 | |
| OM5KV | 2026-09-04 06:19:37 | 44.16960 | 20.57689 | 3° | 18km/h | 22975m | 5.8m/s | -53.3°C | 70.4% | 0hPa | 5.5V | 00:00:00 | 00:00:00 | 00:00:00 | |
| OM5KV | 2026-09-04 06:19:31 | 44.16949 | 20.57685 | 242° | 11km/h | 22936m | 6.9m/s | -53.1°C | 2.3% | 0hPa | 5.5V | 00:00:00 | 00:00:00 | 00:00:00 | |
| LZ4TU-5 | 2026-09-04 06:19:28 | 44.16950 | 20.57697 | 314° | 7km/h | 22919m | 6.3m/s | -53.0°C | 2.2% | 0hPa | 5.5V | 00:00:00 | 00:00:00 | 00:00:00 | |
| OM5KV | 2026-09-04 06:19:25 | 44.16940 | 20.57698 | 347° | 15km/h | 22901m | 6.8m/s | -53.1°C | 2.2% | 0hPa | 5.5V | 00:00:00 | 00:00:00 | 00:00:00 | |
| OM5KV | 2026-09-04 06:19:23 | 44.16935 | 20.57702 | 311° | 7km/h | 22889m | 7.0m/s | -53.1°C | 2.2% | 0hPa | 5.5V | 00:00:00 | 00:00:00 | 00:00:00 | |
| OM5KV | 2026-09-04 06:19:19 | 44.16942 | 20.57712 | 203° | 22km/h | 22863m | 7.0m/s | -53.3°C | 2.2% | 0hPa | 5.5V | 00:00:00 | 00:00:00 | 00:00:00 | |
| OM5KV | 2026-09-04 06:19:17 | 44.16952 | 20.57716 | 196° | 13km/h | 22854m | 4.9m/s | -53.4°C | 2.2% | 0hPa | 5.5V | 00:00:00 | 00:00:00 | 00:00:00 | |
| OM5KV | 2026-09-04 06:19:14 | 44.16950 | 20.57716 | 15° | 13km/h | 22833m | 6.8m/s | -53.4°C | 2.3% | 0hPa | 5.5V | 00:00:00 | 00:00:00 | 00:00:00 | |
| OM5KV | 2026-09-04 06:19:13 | 44.16946 | 20.57714 | 18° | 11km/h | 22826m | 7.1m/s | -53.2°C | 2.2% | 0hPa | 5.5V | 00:00:00 | 00:00:00 | 00:00:00 | |
| OM5KV | 2026-09-04 06:19:10 | 44.16946 | 20.57714 | 187° | 7km/h | 22809m | 7.8m/s | -53.4°C | 2.3% | 0hPa | 5.5V | 00:00:00 | 00:00:00 | 00:00:00 | |
| OM5KV | 2026-09-04 06:19:08 | 44.16955 | 20.57714 | 180° | 22km/h | 22796m | 7.7m/s | -53.4°C | 2.3% | 0hPa | 5.5V | 00:00:00 | 00:00:00 | 00:00:00 | |
| OE3JTB-15 | 2026-09-04 06:18:58 | 44.16968 | 20.57707 | 167° | 16km/h | 22732m | 6.5m/s | -52.9°C | 0% | 0hPa | 5.5V | 00:00:00 | 00:00:00 | 00:00:00 | |
| OM5KV | 2026-09-04 06:18:52 | 44.16991 | 20.57709 | 118° | 13km/h | 22695m | 6.0m/s | -53.7°C | 2.4% | 0hPa | 5.5V | 00:00:00 | 00:00:00 | 00:00:00 | |
| OM5KV | 2026-09-04 06:18:44 | 44.17018 | 20.57696 | 216° | 16km/h | 22643m | 7.2m/s | -53.6°C | 2.3% | 0hPa | 5.5V | 00:00:00 | 00:00:00 | 00:00:00 | |
| OM5KV | 2026-09-04 06:18:43 | 44.17020 | 20.57698 | 206° | 7km/h | 22637m | 6.4m/s | -53.5°C | 2.3% | 0hPa | 5.5V | 00:00:00 | 00:00:00 | 00:00:00 | |
| OM5KV | 2026-09-04 06:18:37 | 44.17032 | 20.57668 | 133° | 16km/h | 22600m | 4.9m/s | -53.4°C | 2.3% | 0hPa | 5.5V | 00:00:00 | 00:00:00 | 00:00:00 | |
| OM5KV | 2026-09-04 06:18:34 | 44.17039 | 20.57663 | 221° | 7km/h | 22583m | 4.2m/s | -53.5°C | 2.3% | 0hPa | 5.5V | 00:00:00 | 00:00:00 | 00:00:00 | |
| OM5KV | 2026-09-04 06:18:29 | 44.17037 | 20.57649 | 99° | 24km/h | 22552m | 4.7m/s | -53.6°C | 2.3% | 0hPa | 5.5V | 00:00:00 | 00:00:00 | 00:00:00 | |
| OE3JTB-15 | 2026-09-04 06:18:28 | 44.17038 | 20.57641 | 113° | 15km/h | 22545m | 7.6m/s | -52.7°C | 0% | 0hPa | 5.5V | 00:00:00 | 00:00:00 | 00:00:00 | |
| OM5KV | 2026-09-04 06:18:22 | 44.17050 | 20.57638 | 299° | 9km/h | 22508m | 7.0m/s | -53.5°C | 2.3% | 0hPa | 5.6V | 00:00:00 | 00:00:00 | 00:00:00 | |
| OM5KV | 2026-09-04 06:18:18 | 44.17043 | 20.57630 | 74° | 16km/h | 22485m | 4.8m/s | -53.5°C | 2.3% | 0hPa | 5.6V | 00:00:00 | 00:00:00 | 00:00:00 | |
| OM5KV | 2026-09-04 06:18:13 | 44.17056 | 20.57601 | 151° | 15km/h | 22459m | 3.8m/s | -53.6°C | 2.3% | 0hPa | 5.6V | 00:00:00 | 00:00:00 | 00:00:00 | |
| OE3JTB-15 | 2026-09-04 06:17:58 | 44.17025 | 20.57533 | 29° | 16km/h | 22360m | 6.3m/s | -53.0°C | 0% | 0hPa | 5.6V | 00:00:00 | 00:00:00 | 00:00:00 | |
| LZ4TU-5 | 2026-09-04 06:17:57 | 44.17021 | 20.57528 | 51° | 18km/h | 22353m | 7.0m/s | -53.7°C | 2.3% | 0hPa | 5.6V | 00:00:00 | 00:00:00 | 00:00:00 | |
| LZ4TU-5 | 2026-09-04 06:17:53 | 44.17019 | 20.57507 | 79° | 11km/h | 22327m | 5.7m/s | -53.7°C | 2.3% | 0hPa | 5.6V | 00:00:00 | 00:00:00 | 00:00:00 | |
| OM5KV | 2026-09-04 06:17:50 | 44.17016 | 20.57501 | 9° | 9km/h | 22310m | 5.2m/s | -53.5°C | 2.3% | 0hPa | 5.6V | 00:00:00 | 00:00:00 | 00:00:00 | |
| OM5KV | 2026-09-04 06:17:49 | 44.17012 | 20.57501 | 353° | 16km/h | 22303m | 7.3m/s | -53.5°C | 2.3% | 0hPa | 5.6V | 00:00:00 | 00:00:00 | 00:00:00 | |
| OM5KV | 2026-09-04 06:17:44 | 44.16985 | 20.57500 | 58° | 22km/h | 22272m | 4.7m/s | -53.8°C | 2.4% | 0hPa | 5.6V | 00:00:00 | 00:00:00 | 00:00:00 | |
| OM5KV | 2026-09-04 06:17:43 | 44.16982 | 20.57493 | 64° | 22km/h | 22267m | 5.7m/s | -53.9°C | 2.4% | 0hPa | 5.6V | 00:00:00 | 00:00:00 | 00:00:00 | |
| OM5KV | 2026-09-04 06:17:36 | 44.16945 | 20.57479 | 345° | 29km/h | 22223m | 7.0m/s | -54.1°C | 2.4% | 0hPa | 5.6V | 00:00:00 | 00:00:00 | 00:00:00 | |
| OM5KV | 2026-09-04 06:17:28 | 44.16900 | 20.57479 | 341° | 18km/h | 22176m | 5.4m/s | -54.1°C | 2.4% | 0hPa | 5.6V | 00:00:00 | 00:00:00 | 00:00:00 | |
| OM5KV | 2026-09-04 06:17:21 | 44.16863 | 20.57521 | 320° | 18km/h | 22133m | 6.5m/s | -54.0°C | 2.3% | 0hPa | 5.6V | 00:00:00 | 00:00:00 | 00:00:00 | |
| OM5KV | 2026-09-04 06:17:17 | 44.16848 | 20.57517 | 3° | 11km/h | 22109m | 6.1m/s | -53.9°C | 2.3% | 0hPa | 5.6V | 00:00:00 | 00:00:00 | 00:00:00 | |
| OM5KV | 2026-09-04 06:17:12 | 44.16838 | 20.57549 | 286° | 27km/h | 22078m | 5.6m/s | -53.7°C | 2.2% | 0hPa | 5.6V | 00:00:00 | 00:00:00 | 00:00:00 | |
| OM5KV | 2026-09-04 06:17:07 | 44.16826 | 20.57575 | 358° | 18km/h | 22048m | 5.8m/s | -53.6°C | 2.2% | 0hPa | 5.6V | 00:00:00 | 00:00:00 | 00:00:00 | |
| OM5KV | 2026-09-04 06:17:04 | 44.16816 | 20.57577 | 297° | 9km/h | 22030m | 5.8m/s | -53.7°C | 2.2% | 0hPa | 5.6V | 00:00:00 | 00:00:00 | 00:00:00 | |
| OM5KV | 2026-09-04 06:16:59 | 44.16814 | 20.57606 | 270° | 24km/h | 21998m | 9.0m/s | -54.1°C | 2.3% | 0hPa | 5.6V | 00:00:00 | 00:00:00 | 00:00:00 | |
| OM5KV | 2026-09-04 06:16:49 | 44.16797 | 20.57638 | 214° | 15km/h | 21936m | 4.7m/s | -54.5°C | 2.5% | 0hPa | 5.6V | 00:00:00 | 00:00:00 | 00:00:00 | |
| OE3JTB-15 | 2026-09-04 06:16:47 | 44.16803 | 20.57646 | 245° | 15km/h | 21922m | 7.5m/s | -53.8°C | 0% | 0hPa | 5.6V | 00:00:00 | 00:00:00 | 00:00:00 | |
| OM5KV | 2026-09-04 06:16:43 | 44.16801 | 20.57667 | 341° | 9km/h | 21898m | 5.8m/s | -54.5°C | 2.5% | 0hPa | 5.6V | 00:00:00 | 00:00:00 | 00:00:00 | |
| OM5KV | 2026-09-04 06:16:37 | 44.16804 | 20.57677 | 222° | 22km/h | 21863m | 6.9m/s | -54.4°C | 2.4% | 0hPa | 5.6V | 00:00:00 | 00:00:00 | 00:00:00 | |
| OM5KV | 2026-09-04 06:16:21 | 44.16849 | 20.57725 | 245° | 18km/h | 21759m | 7.5m/s | -54.2°C | 2.5% | 0hPa | 5.6V | 00:00:00 | 00:00:00 | 00:00:00 | |
| OM5KV | 2026-09-04 06:16:20 | 44.16850 | 20.57730 | 258° | 15km/h | 21754m | 4.3m/s | -54.3°C | 2.4% | 0hPa | 5.6V | 00:00:00 | 00:00:00 | 00:00:00 | |
| OE3JTB-15 | 2026-09-04 06:16:18 | 44.16851 | 20.57738 | 213° | 20km/h | 21743m | 6.7m/s | -53.5°C | 0% | 0hPa | 5.6V | 00:00:00 | 00:00:00 | 00:00:00 | |
| LZ4TU-5 | 2026-09-04 06:16:16 | 44.16858 | 20.57735 | 161° | 18km/h | 21731m | 5.2m/s | -54.2°C | 2.4% | 0hPa | 5.6V | 00:00:00 | 00:00:00 | 00:00:00 | |
| OE3JTB-15 | 2026-09-04 06:15:47 | 44.16994 | 20.57801 | 235° | 20km/h | 21552m | 6.5m/s | -53.1°C | 0% | 0hPa | 5.6V | 00:00:00 | 00:00:00 | 00:00:00 | |
| OM5KV | 2026-09-04 06:15:41 | 44.17027 | 20.57784 | 181° | 31km/h | 21514m | 5.3m/s | -53.6°C | 2.3% | 0hPa | 5.6V | 00:00:00 | 00:00:00 | 00:00:00 | |
| OM5KV | 2026-09-04 06:15:33 | 44.17053 | 20.57788 | 142° | 26km/h | 21464m | 5.4m/s | -53.5°C | 2.1% | 0hPa | 5.6V | 00:00:00 | 00:00:00 | 00:00:00 | |
| OM5KV | 2026-09-04 06:15:32 | 44.17060 | 20.57782 | 154° | 33km/h | 21456m | 7.5m/s | -53.5°C | 2.1% | 0hPa | 5.6V | 00:00:00 | 00:00:00 | 00:00:00 | |
| OE3JTB-15 | 2026-09-04 06:15:18 | 44.17116 | 20.57795 | 179° | 18km/h | 21371m | 5.4m/s | -52.8°C | 0% | 0hPa | 5.6V | 00:00:00 | 00:00:00 | 00:00:00 | |
| OM5KV | 2026-09-04 06:15:05 | 44.17146 | 20.57792 | 273° | 13km/h | 21294m | 8.9m/s | -53.9°C | 2.0% | 0hPa | 5.6V | 00:00:00 | 00:00:00 | 00:00:00 | |
| LZ4TU-5 | 2026-09-04 06:14:51 | 44.17128 | 20.57797 | 32° | 13km/h | 21209m | 4.2m/s | -54.6°C | 2.2% | 0hPa | 5.6V | 00:00:00 | 00:00:00 | 00:00:00 | |
| LZ4TU-5 | 2026-09-04 06:14:47 | 44.17129 | 20.57789 | 160° | 13km/h | 21182m | 8.0m/s | -54.5°C | 2.2% | 0hPa | 5.6V | 00:00:00 | 00:00:00 | 00:00:00 | |
| LZ4TU-5 | 2026-09-04 06:12:57 | 44.17450 | 20.57660 | 123° | 22km/h | 20533m | 4.8m/s | -55.4°C | 2.1% | 0hPa | 5.6V | 00:00:00 | 00:00:00 | 00:00:00 | |
| LZ4TU-5 | 2026-09-04 06:12:52 | 44.17472 | 20.57651 | 191° | 9km/h | 20503m | 6.2m/s | -55.4°C | 2.1% | 0hPa | 5.6V | 00:00:00 | 00:00:00 | 00:00:00 | |
| OE3JTB-15 | 2026-09-04 06:12:11 | 44.17540 | 20.57471 | 71° | 18km/h | 20263m | 6.8m/s | -55.5°C | 0% | 0hPa | 5.6V | 00:00:00 | 00:00:00 | 00:00:00 | |
| OE3JTB-15 | 2026-09-04 06:11:42 | 44.17532 | 20.57290 | 34° | 11km/h | 20084m | 5.5m/s | -55.0°C | 0% | 0hPa | 5.6V | 00:00:00 | 00:00:00 | 00:00:00 | |
| LZ4TU-5 | 2026-09-04 06:11:18 | 44.17478 | 20.57270 | 311° | 9km/h | 19932m | 5.2m/s | -55.2°C | 2.8% | 0hPa | 5.6V | 00:00:00 | 00:00:00 | 00:00:00 | |
| OE3JTB-15 | 2026-09-04 06:11:13 | 44.17475 | 20.57274 | 47° | 11km/h | 19899m | 4.8m/s | -54.3°C | 0% | 0hPa | 5.6V | 00:00:00 | 00:00:00 | 00:00:00 | |
| OE3JTB-15 | 2026-09-04 06:10:44 | 44.17447 | 20.57375 | 281° | 18km/h | 19726m | 5.6m/s | -53.3°C | 0% | 0hPa | 5.6V | 00:00:00 | 00:00:00 | 00:00:00 | |
| LZ4TU-5 | 2026-09-04 06:09:54 | 44.17596 | 20.57453 | 146° | 18km/h | 19419m | 5.4m/s | -52.9°C | 0% | 0hPa | 5.6V | 00:00:00 | 00:00:00 | 00:00:00 | |
| OE3JTB-15 | 2026-09-04 06:09:53 | 44.17600 | 20.57450 | 154° | 24km/h | 19412m | 7.1m/s | -52.3°C | 0% | 0hPa | 5.6V | 00:00:00 | 00:00:00 | 00:00:00 | |
| LZ4TU-5 | 2026-09-04 06:09:50 | 44.17611 | 20.57446 | 154° | 20km/h | 19394m | 6.7m/s | -53.0°C | 2.6% | 0hPa | 5.6V | 00:00:00 | 00:00:00 | 00:00:00 | |
| LZ4TU-5 | 2026-09-04 06:09:45 | 44.17641 | 20.57411 | 146° | 24km/h | 19364m | 4.9m/s | -52.8°C | 2.5% | 0hPa | 5.6V | 00:00:00 | 00:00:00 | 00:00:00 | |
| LZ4TU-5 | 2026-09-04 06:08:57 | 44.17820 | 20.57107 | 89° | 38km/h | 19080m | 6.5m/s | -55.1°C | 2.4% | 0hPa | 5.6V | 00:00:00 | 00:00:00 | 00:00:00 | |
| OE3JTB-15 | 2026-09-04 06:08:20 | 44.17918 | 20.56852 | 144° | 24km/h | 18859m | 5.0m/s | -55.4°C | 0% | 0hPa | 5.6V | 00:00:00 | 00:00:00 | 00:00:00 | |
| LZ4TU-5 | 2026-09-04 06:08:09 | 44.17998 | 20.56775 | 134° | 40km/h | 18799m | 5.7m/s | -57.2°C | 2.6% | 0hPa | 5.6V | 00:00:00 | 00:00:00 | 00:00:00 | |
| LZ4TU-5 | 2026-09-04 06:08:05 | 44.18023 | 20.56744 | 151° | 26km/h | 18777m | 4.9m/s | -57.2°C | 2.5% | 0hPa | 5.6V | 00:00:00 | 00:00:00 | 00:00:00 | |
| LZ4TU-5 | 2026-09-04 06:08:00 | 44.18047 | 20.56700 | 124° | 35km/h | 18747m | 5.5m/s | -57.0°C | 2.5% | 0hPa | 5.6V | 00:00:00 | 00:00:00 | 00:00:00 | |
| LZ4TU-5 | 2026-09-04 06:07:18 | 44.18125 | 20.56406 | 55° | 11km/h | 18508m | 6.3m/s | -57.3°C | 2.8% | 0hPa | 5.6V | 00:00:00 | 00:00:00 | 00:00:00 | |
| LZ4TU-5 | 2026-09-04 06:07:13 | 44.18123 | 20.56380 | 84° | 16km/h | 18482m | 4.7m/s | -57.1°C | 2.8% | 0hPa | 5.6V | 00:00:00 | 00:00:00 | 00:00:00 | |
| LZ4TU-5 | 2026-09-04 06:06:25 | 44.18166 | 20.56302 | 125° | 20km/h | 18211m | 6.7m/s | -56.9°C | 2.7% | 0hPa | 5.6V | 00:00:00 | 00:00:00 | 00:00:00 | |
| LZ4TU-5 | 2026-09-04 06:06:21 | 44.18180 | 20.56277 | 122° | 20km/h | 18188m | 4.9m/s | -56.8°C | 2.6% | 0hPa | 5.6V | 00:00:00 | 00:00:00 | 00:00:00 | |
| OE3JTB-15 | 2026-09-04 06:06:07 | 44.18213 | 20.56212 | 55° | 13km/h | 18105m | 4.9m/s | -55.9°C | 0% | 0hPa | 5.6V | 00:00:00 | 00:00:00 | 00:00:00 | |
| LZ4TU-5 | 2026-09-04 06:05:37 | 44.18261 | 20.56060 | 129° | 13km/h | 17935m | 5.0m/s | -56.8°C | 3.1% | 0hPa | 0V | 00:00:00 | 00:00:00 | 00:00:00 | |
| LZ4TU-5 | 2026-09-04 06:05:33 | 44.18263 | 20.56045 | 46° | 15km/h | 17911m | 7.3m/s | -56.7°C | 3.1% | 0hPa | 0V | 00:00:00 | 00:00:00 | 00:00:00 | |
| LZ4TU-5 | 2026-09-04 06:05:27 | 44.18252 | 20.56029 | 90° | 5km/h | 17875m | 7.1m/s | -56.4°C | 3.2% | 0hPa | 0V | 00:00:00 | 00:00:00 | 00:00:00 | |
| LZ4TU-5 | 2026-09-04 06:05:21 | 44.18254 | 20.56014 | 91° | 4km/h | 17842m | 5.7m/s | -56.4°C | 3.2% | 0hPa | 0V | 00:00:00 | 00:00:00 | 00:00:00 | |
| LZ4TU-5 | 2026-09-04 06:05:16 | 44.18250 | 20.56012 | 7° | 9km/h | 17813m | 5.5m/s | -56.3°C | 3.2% | 0hPa | 0V | 00:00:00 | 00:00:00 | 00:00:00 | |
| LZ4TU-5 | 2026-09-04 06:04:16 | 44.18261 | 20.56068 | 194° | 16km/h | 17464m | 5.8m/s | -54.5°C | 3.2% | 0hPa | 0V | 00:00:00 | 00:00:00 | 00:00:00 | |
| LZ4TU-5 | 2026-09-04 06:04:11 | 44.18281 | 20.56076 | 161° | 20km/h | 17429m | 5.2m/s | -54.2°C | 3.1% | 0hPa | 0V | 00:00:00 | 00:00:00 | 00:00:00 | |
| LZ4TU-5 | 2026-09-04 06:02:29 | 44.18998 | 20.55375 | 135° | 33km/h | 16849m | 4.8m/s | -58.6°C | 3.5% | 0hPa | 0V | 00:00:00 | 00:00:00 | 00:00:00 | |
| LZ4TU-5 | 2026-09-04 06:02:26 | 44.19027 | 20.55340 | 146° | 37km/h | 16826m | 6.3m/s | -58.5°C | 3.5% | 0hPa | 0V | 00:00:00 | 00:00:00 | 00:00:00 | |
| LZ4TU-5 | 2026-09-04 06:01:00 | 44.19710 | 20.54744 | 161° | 44km/h | 16354m | 5.3m/s | -57.6°C | 3.9% | 0hPa | 0V | 00:00:00 | 00:00:00 | 00:00:00 | |
| LZ4TU-5 | 2026-09-04 06:00:55 | 44.19756 | 20.54708 | 149° | 46km/h | 16325m | 5.8m/s | -57.4°C | 4.0% | 0hPa | 0V | 00:00:00 | 00:00:00 | 00:00:00 | |
| LZ4TU-5 | 2026-09-04 06:00:50 | 44.19806 | 20.54670 | 160° | 49km/h | 16296m | 5.6m/s | -57.2°C | 3.9% | 0hPa | 0V | 00:00:00 | 00:00:00 | 00:00:00 | |
| LZ4TU-5 | 2026-09-04 06:00:46 | 44.19848 | 20.54650 | 160° | 40km/h | 16274m | 5.8m/s | -57.2°C | 4.0% | 0hPa | 0V | 00:00:00 | 00:00:00 | 00:00:00 | |
| LZ4TU-5 | 2026-09-04 05:59:17 | 44.20593 | 20.53828 | 142° | 35km/h | 15763m | 5.0m/s | -55.2°C | 3.8% | 0hPa | 0V | 00:00:00 | 00:00:00 | 00:00:00 | |
| LZ4TU-5 | 2026-09-04 05:59:12 | 44.20629 | 20.53804 | 156° | 37km/h | 15743m | 4.9m/s | -55.4°C | 3.9% | 0hPa | 0V | 00:00:00 | 00:00:00 | 00:00:00 | |
| LZ4TU-5 | 2026-09-04 05:58:26 | 44.20977 | 20.53309 | 138° | 55km/h | 15436m | 7.7m/s | -56.0°C | 4.4% | 0hPa | 0V | 00:00:00 | 00:00:00 | 00:00:00 | |
| LZ4TU-5 | 2026-09-04 05:58:21 | 44.21030 | 20.53247 | 138° | 53km/h | 15403m | 7.1m/s | -55.8°C | 4.5% | 0hPa | 0V | 00:00:00 | 00:00:00 | 00:00:00 | |
| LZ4TU-5 | 2026-09-04 05:57:35 | 44.21517 | 20.52614 | 145° | 49km/h | 15110m | 4.6m/s | -55.3°C | 4.7% | 0hPa | 0V | 00:00:00 | 00:00:00 | 00:00:00 | |
| LZ4TU-5 | 2026-09-04 05:57:31 | 44.21549 | 20.52556 | 119° | 55km/h | 15086m | 6.6m/s | -55.5°C | 4.7% | 0hPa | 0V | 00:00:00 | 00:00:00 | 00:00:00 | |
| LZ4TU-5 | 2026-09-04 05:56:52 | 44.21926 | 20.52078 | 134° | 53km/h | 14882m | 5.0m/s | -55.0°C | 5.2% | 0hPa | 0V | 00:00:00 | 00:00:00 | 00:00:00 | |
| LZ4TU-5 | 2026-09-04 05:56:47 | 44.21980 | 20.52029 | 157° | 46km/h | 14857m | 4.6m/s | -54.9°C | 5.1% | 0hPa | 0V | 00:00:00 | 00:00:00 | 00:00:00 | |
| LZ4TU-5 | 2026-09-04 05:56:01 | 44.22505 | 20.51649 | 149° | 60km/h | 14619m | 4.8m/s | -55.3°C | 6.0% | 0hPa | 0V | 00:00:00 | 00:00:00 | 00:00:00 | |
| LZ4TU-5 | 2026-09-04 05:55:57 | 44.22564 | 20.51608 | 151° | 60km/h | 14601m | 4.3m/s | -55.3°C | 5.9% | 0hPa | 0V | 00:00:00 | 00:00:00 | 00:00:00 | |
| LZ4TU-5 | 2026-09-04 05:55:18 | 44.23008 | 20.51260 | 154° | 37km/h | 14405m | 4.3m/s | -56.0°C | 6.8% | 0hPa | 0V | 00:00:00 | 00:00:00 | 00:00:00 | |
| LZ4TU-5 | 2026-09-04 05:55:13 | 44.23060 | 20.51223 | 163° | 51km/h | 14383m | 3.9m/s | -55.9°C | 6.8% | 0hPa | 0V | 00:00:00 | 00:00:00 | 00:00:00 | |
| LZ4TU-5 | 2026-09-04 05:54:15 | 44.23919 | 20.51024 | 170° | 77km/h | 14046m | 5.0m/s | -57.1°C | 8.8% | 0hPa | 0V | 00:00:00 | 00:00:00 | 00:00:00 | |
| LZ4TU-5 | 2026-09-04 05:54:11 | 44.24000 | 20.50999 | 165° | 84km/h | 14024m | 4.1m/s | -57.7°C | 9.2% | 0hPa | 0V | 00:00:00 | 00:00:00 | 00:00:00 | |
| LZ4TU-5 | 2026-09-04 05:52:50 | 44.25478 | 20.50461 | 176° | 62km/h | 13558m | 6.0m/s | -58.6°C | 14.0% | 0hPa | 0V | 00:00:00 | 00:00:00 | 00:00:00 | |
| LZ4TU-5 | 2026-09-04 05:51:22 | 44.27514 | 20.50150 | 159° | 99km/h | 13053m | 4.6m/s | -60.0°C | 28.7% | 0hPa | 0V | 00:00:00 | 00:00:00 | 00:00:00 | |
| LZ4TU-5 | 2026-09-04 05:51:17 | 44.27651 | 20.50116 | 180° | 111km/h | 13019m | 8.6m/s | -59.7°C | 29.4% | 0hPa | 0V | 00:00:00 | 00:00:00 | 00:00:00 | |
| LZ4TU-5 | 2026-09-04 05:49:58 | 44.30334 | 20.49669 | 166° | 144km/h | 12512m | 4.5m/s | -61.9°C | 43.4% | 0hPa | 0V | 00:00:00 | 00:00:00 | 00:00:00 | |
| LZ4TU-5 | 2026-09-04 05:49:53 | 44.30495 | 20.49614 | 168° | 120km/h | 12482m | 5.6m/s | -61.9°C | 43.1% | 0hPa | 0V | 00:00:00 | 00:00:00 | 00:00:00 | |
| LZ4TU-5 | 2026-09-04 05:48:20 | 44.33573 | 20.49529 | 185° | 135km/h | 11912m | 5.0m/s | -58.4°C | 45.4% | 0hPa | 0V | 00:00:00 | 00:00:00 | 00:00:00 | |
| LZ4TU-5 | 2026-09-04 05:48:15 | 44.33753 | 20.49535 | 185° | 139km/h | 11877m | 7.7m/s | -58.2°C | 45.6% | 0hPa | 0V | 00:00:00 | 00:00:00 | 00:00:00 | |
| LZ4TU-5 | 2026-09-04 05:46:47 | 44.36949 | 20.49738 | 180° | 130km/h | 11355m | 8.4m/s | -54.2°C | 49.2% | 0hPa | 0V | 00:00:00 | 00:00:00 | 00:00:00 | |
| LZ4TU-5 | 2026-09-04 05:46:42 | 44.37121 | 20.49754 | 186° | 150km/h | 11323m | 5.5m/s | -53.8°C | 49.1% | 0hPa | 0V | 00:00:00 | 00:00:00 | 00:00:00 | |
| LZ4TU-5 | 2026-09-04 05:45:22 | 44.39940 | 20.49754 | 170° | 133km/h | 10870m | 6.7m/s | -49.7°C | 45.0% | 0hPa | 0V | 00:00:00 | 00:00:00 | 00:00:00 | |
| LZ4TU-5 | 2026-09-04 05:45:18 | 44.40078 | 20.49729 | 179° | 144km/h | 10849m | 8.4m/s | -49.5°C | 44.7% | 0hPa | 0V | 00:00:00 | 00:00:00 | 00:00:00 | |
| LZ4TU-5 | 2026-09-04 05:43:57 | 44.42857 | 20.49713 | 181° | 120km/h | 10363m | 6.5m/s | -45.1°C | 45.5% | 0hPa | 0V | 00:00:00 | 00:00:00 | 00:00:00 | |
| LZ4TU-5 | 2026-09-04 05:43:53 | 44.42983 | 20.49713 | 178° | 144km/h | 10346m | 4.5m/s | -44.9°C | 44.7% | 0hPa | 0V | 00:00:00 | 00:00:00 | 00:00:00 | |
| LZ4TU-5 | 2026-09-04 05:43:49 | 44.43139 | 20.49711 | 181° | 142km/h | 10328m | 4.2m/s | -44.7°C | 44.0% | 0hPa | 0V | 00:00:00 | 00:00:00 | 00:00:00 | |
| LZ4TU-5 | 2026-09-04 05:43:44 | 44.43303 | 20.49702 | 178° | 137km/h | 10295m | 7.2m/s | -44.4°C | 43.0% | 0hPa | 0V | 00:00:00 | 00:00:00 | 00:00:00 | |
| LZ4TU-5 | 2026-09-04 05:42:17 | 44.46268 | 20.49737 | 179° | 124km/h | 9811m | 4.1m/s | -39.9°C | 34.7% | 0hPa | 0V | 00:00:00 | 00:00:00 | 00:00:00 | |
| LZ4TU-5 | 2026-09-04 05:42:12 | 44.46439 | 20.49732 | 179° | 133km/h | 9788m | 5.5m/s | -39.7°C | 35.1% | 0hPa | 0V | 00:00:00 | 00:00:00 | 00:00:00 | |
| LZ4TU-5 | 2026-09-04 05:40:24 | 44.50096 | 20.49654 | 177° | 128km/h | 9198m | 7.4m/s | -34.8°C | 37.7% | 0hPa | 0V | 00:00:00 | 00:00:00 | 00:00:00 | |
| LZ4TU-5 | 2026-09-04 05:40:19 | 44.50281 | 20.49622 | 176° | 137km/h | 9166m | 4.9m/s | -34.5°C | 37.5% | 0hPa | 0V | 00:00:00 | 00:00:00 | 00:00:00 | |
| LZ4TU-5 | 2026-09-04 05:38:32 | 44.53886 | 20.49349 | 180° | 130km/h | 8587m | 7.0m/s | -29.5°C | 31.8% | 0hPa | 0V | 00:00:00 | 00:00:00 | 00:00:00 | |
| LZ4TU-5 | 2026-09-04 05:38:28 | 44.54017 | 20.49353 | 177° | 126km/h | 8566m | 5.0m/s | -29.3°C | 31.4% | 0hPa | 0V | 00:00:00 | 00:00:00 | 00:00:00 | |
| LZ4TU-5 | 2026-09-04 05:37:07 | 44.56531 | 20.49084 | 177° | 137km/h | 8123m | 2.7m/s | -25.5°C | 28.2% | 0hPa | 0V | 00:00:00 | 00:00:00 | 00:00:00 | |
| LZ4TU-5 | 2026-09-04 05:37:02 | 44.56673 | 20.49080 | 175° | 106km/h | 8089m | 7.1m/s | -25.3°C | 28.9% | 0hPa | 0V | 00:00:00 | 00:00:00 | 00:00:00 | |
| LZ4TU-5 | 2026-09-04 05:35:48 | 44.58790 | 20.48834 | 176° | 102km/h | 7668m | 5.2m/s | -22.1°C | 30.6% | 0hPa | 0V | 00:00:00 | 00:00:00 | 00:00:00 | |
| LZ4TU-5 | 2026-09-04 05:35:44 | 44.58912 | 20.48814 | 174° | 135km/h | 7644m | 5.2m/s | -22.0°C | 30.8% | 0hPa | 0V | 00:00:00 | 00:00:00 | 00:00:00 | |
| LZ4TU-5 | 2026-09-04 05:34:31 | 44.60825 | 20.48832 | 169° | 115km/h | 7237m | 5.9m/s | -20.4°C | 46.9% | 0hPa | 0V | 00:00:00 | 00:00:00 | 00:00:00 | |
| LZ4TU-5 | 2026-09-04 05:34:27 | 44.60916 | 20.48812 | 175° | 78km/h | 7214m | 4.7m/s | -20.4°C | 47.6% | 0hPa | 0V | 00:00:00 | 00:00:00 | 00:00:00 | |
| LZ4TU-5 | 2026-09-04 05:33:13 | 44.62906 | 20.48456 | 179° | 111km/h | 6821m | 7.2m/s | -17.2°C | 42.4% | 0hPa | 0V | 00:00:00 | 00:00:00 | 00:00:00 | |
| LZ4TU-5 | 2026-09-04 05:33:09 | 44.63041 | 20.48433 | 170° | 141km/h | 6798m | 3.4m/s | -16.8°C | 42.5% | 0hPa | 0V | 00:00:00 | 00:00:00 | 00:00:00 | |
| LZ4TU-5 | 2026-09-04 05:32:01 | 44.64925 | 20.48092 | 177° | 106km/h | 6431m | 6.4m/s | -14.4°C | 54.4% | 0hPa | 0V | 00:00:00 | 00:00:00 | 00:00:00 | |
| LZ4TU-5 | 2026-09-04 05:31:56 | 44.65077 | 20.48087 | 179° | 111km/h | 6403m | 5.4m/s | -14.3°C | 55.4% | 0hPa | 0V | 00:00:00 | 00:00:00 | 00:00:00 | |
| LZ4TU-5 | 2026-09-04 05:30:47 | 44.66910 | 20.47867 | 167° | 97km/h | 6033m | 5.0m/s | -12.2°C | 51.1% | 0hPa | 0V | 00:00:00 | 00:00:00 | 00:00:00 | |
| LZ4TU-5 | 2026-09-04 05:30:42 | 44.67016 | 20.47822 | 169° | 69km/h | 6007m | 3.4m/s | -12.1°C | 49.2% | 0hPa | 0V | 00:00:00 | 00:00:00 | 00:00:00 | |
| LZ4TU-5 | 2026-09-04 05:29:35 | 44.68469 | 20.47520 | 178° | 78km/h | 5644m | 5.1m/s | -10.1°C | 24.1% | 0hPa | 0V | 00:00:00 | 00:00:00 | 00:00:00 | |
| LZ4TU-5 | 2026-09-04 05:29:31 | 44.68553 | 20.47522 | 185° | 89km/h | 5624m | 6.2m/s | -10.0°C | 75.7% | 0hPa | 0V | 00:00:00 | 00:00:00 | 00:00:00 | |
| LZ4TU-5 | 2026-09-04 05:29:25 | 44.68668 | 20.47492 | 159° | 64km/h | 5591m | 5.8m/s | -9.8°C | 25.4% | 0hPa | 0V | 00:00:00 | 00:00:00 | 00:00:00 |